<?xml version="1.0" encoding="utf-8"?>
<gpx version="1.1" creator="com.bodunov.GalileoPro/v5.4.1" xmlns:xsi="http://www.w3.org/2001/XMLSchema-instance" xmlns="http://www.topografix.com/GPX/1/1" xmlns:gom="https://gurumaps.app/gpx/v3" xsi:schemaLocation="http://www.topografix.com/GPX/1/1 http://www.topografix.com/GPX/1/1/gpx.xsd https://gurumaps.app/gpx/v3 https://gurumaps.app/gpx/v3/schema.xsd">
 <trk>
  <name>Группа2</name>
  <type>TrackStyle_FFD60AC8</type>
  <extensions>
   <gom:time>2026-04-20T12:11:34.273Z</gom:time>
  </extensions>
  <trkseg>
   <trkpt lat="59.0613629876" lon="30.0069027696"><ele>98.288</ele><time>2026-04-20T12:11:35.643Z</time><hdop>3.25</hdop><vdop>2.5</vdop><extensions><gom:speed>0.807</gom:speed></extensions></trkpt>
   <trkpt lat="59.0613418652" lon="30.0070774485"><ele>100.089</ele><time>2026-04-20T12:12:52.124Z</time><hdop>3.062</hdop><vdop>2.5</vdop><extensions><gom:speed>1.246</gom:speed></extensions></trkpt>
   <trkpt lat="59.0613702798" lon="30.0072536361"><ele>99.342</ele><time>2026-04-20T12:12:59.143Z</time><hdop>3.062</hdop><vdop>2.5</vdop><extensions><gom:speed>1.253</gom:speed></extensions></trkpt>
   <trkpt lat="59.0613762729" lon="30.0074350205"><ele>98.488</ele><time>2026-04-20T12:13:07.321Z</time><hdop>3.0</hdop><vdop>2.5</vdop><extensions><gom:speed>1.274</gom:speed></extensions></trkpt>
   <trkpt lat="59.0613642868" lon="30.0076133874"><ele>97.665</ele><time>2026-04-20T12:13:14.959Z</time><hdop>3.0</hdop><vdop>2.5</vdop><extensions><gom:speed>1.204</gom:speed></extensions></trkpt>
   <trkpt lat="59.0614035979" lon="30.0077733979"><ele>97.394</ele><time>2026-04-20T12:13:21.823Z</time><hdop>3.0</hdop><vdop>2.5</vdop><extensions><gom:speed>1.342</gom:speed></extensions></trkpt>
   <trkpt lat="59.0614321802" lon="30.0079525192"><ele>98.537</ele><time>2026-04-20T12:13:29.308Z</time><hdop>3.0</hdop><vdop>2.5</vdop><extensions><gom:speed>1.324</gom:speed></extensions></trkpt>
   <trkpt lat="59.0614528835" lon="30.0081380945"><ele>98.388</ele><time>2026-04-20T12:13:36.839Z</time><hdop>3.0</hdop><vdop>2.5</vdop><extensions><gom:speed>1.27</gom:speed></extensions></trkpt>
   <trkpt lat="59.0614776939" lon="30.0083079957"><ele>97.118</ele><time>2026-04-20T12:13:45.122Z</time><hdop>3.0</hdop><vdop>2.5</vdop><extensions><gom:speed>1.212</gom:speed></extensions></trkpt>
   <trkpt lat="59.0614952959" lon="30.0084858597"><ele>96.839</ele><time>2026-04-20T12:13:52.787Z</time><hdop>3.0</hdop><vdop>2.5</vdop><extensions><gom:speed>1.222</gom:speed></extensions></trkpt>
   <trkpt lat="59.0615129817" lon="30.0086638913"><ele>97.465</ele><time>2026-04-20T12:14:01.062Z</time><hdop>3.0</hdop><vdop>2.5</vdop><extensions><gom:speed>1.249</gom:speed></extensions></trkpt>
   <trkpt lat="59.0615118921" lon="30.0088408333"><ele>96.561</ele><time>2026-04-20T12:14:08.061Z</time><hdop>3.125</hdop><vdop>2.5</vdop><extensions><gom:speed>1.327</gom:speed></extensions></trkpt>
   <trkpt lat="59.0615122693" lon="30.0090244808"><ele>98.67</ele><time>2026-04-20T12:14:14.505Z</time><hdop>3.062</hdop><vdop>2.5</vdop><extensions><gom:speed>1.402</gom:speed></extensions></trkpt>
   <trkpt lat="59.0615337689" lon="30.0092118163"><ele>98.823</ele><time>2026-04-20T12:14:21.323Z</time><hdop>3.0</hdop><vdop>2.5</vdop><extensions><gom:speed>1.394</gom:speed></extensions></trkpt>
   <trkpt lat="59.0615486886" lon="30.0093915243"><ele>98.289</ele><time>2026-04-20T12:14:28.643Z</time><hdop>3.062</hdop><vdop>2.5</vdop><extensions><gom:speed>1.513</gom:speed></extensions></trkpt>
   <trkpt lat="59.0615501974" lon="30.0095683825"><ele>96.575</ele><time>2026-04-20T12:14:35.442Z</time><hdop>3.062</hdop><vdop>2.5</vdop><extensions><gom:speed>1.503</gom:speed></extensions></trkpt>
   <trkpt lat="59.0615891732" lon="30.0097318296"><ele>96.43</ele><time>2026-04-20T12:14:42.002Z</time><hdop>3.0</hdop><vdop>2.5</vdop><extensions><gom:speed>1.504</gom:speed></extensions></trkpt>
   <trkpt lat="59.0616124749" lon="30.0099144713"><ele>96.307</ele><time>2026-04-20T12:14:48.584Z</time><hdop>3.0</hdop><vdop>2.625</vdop><extensions><gom:speed>1.581</gom:speed></extensions></trkpt>
   <trkpt lat="59.0616312923" lon="30.010103567"><ele>94.462</ele><time>2026-04-20T12:14:55.702Z</time><hdop>3.0</hdop><vdop>3.0</vdop><extensions><gom:speed>1.483</gom:speed></extensions></trkpt>
   <trkpt lat="59.0616514927" lon="30.0102765695"><ele>94.265</ele><time>2026-04-20T12:15:02.341Z</time><hdop>3.687</hdop><vdop>2.5</vdop><extensions><gom:speed>1.471</gom:speed></extensions></trkpt>
   <trkpt lat="59.0616486848" lon="30.0104551878"><ele>93.756</ele><time>2026-04-20T12:15:19.822Z</time><hdop>4.312</hdop><vdop>2.5</vdop><extensions><gom:speed>1.1</gom:speed></extensions></trkpt>
   <trkpt lat="59.0616863614" lon="30.0106146954"><ele>94.102</ele><time>2026-04-20T12:15:25.142Z</time><hdop>3.0</hdop><vdop>2.5</vdop><extensions><gom:speed>1.332</gom:speed></extensions></trkpt>
   <trkpt lat="59.0617247924" lon="30.0107851834"><ele>94.849</ele><time>2026-04-20T12:15:31.739Z</time><hdop>3.0</hdop><vdop>2.5</vdop><extensions><gom:speed>1.385</gom:speed></extensions></trkpt>
   <trkpt lat="59.0617354794" lon="30.010960449"><ele>95.829</ele><time>2026-04-20T12:15:37.881Z</time><hdop>3.0</hdop><vdop>2.5</vdop><extensions><gom:speed>1.404</gom:speed></extensions></trkpt>
   <trkpt lat="59.0617589906" lon="30.0111427553"><ele>96.093</ele><time>2026-04-20T12:15:44.565Z</time><hdop>3.062</hdop><vdop>2.5</vdop><extensions><gom:speed>1.524</gom:speed></extensions></trkpt>
   <trkpt lat="59.061758362" lon="30.0113271572"><ele>96.493</ele><time>2026-04-20T12:15:50.822Z</time><hdop>3.0</hdop><vdop>2.5</vdop><extensions><gom:speed>1.522</gom:speed></extensions></trkpt>
   <trkpt lat="59.0618340924" lon="30.0114490301"><ele>96.205</ele><time>2026-04-20T12:15:58.465Z</time><hdop>3.5</hdop><vdop>2.5</vdop><extensions><gom:speed>1.394</gom:speed></extensions></trkpt>
   <trkpt lat="59.0619179953" lon="30.0113716651"><ele>97.633</ele><time>2026-04-20T12:16:03.822Z</time><hdop>3.125</hdop><vdop>2.812</vdop><extensions><gom:speed>1.371</gom:speed></extensions></trkpt>
   <trkpt lat="59.0620024849" lon="30.0112780393"><ele>97.161</ele><time>2026-04-20T12:16:11.102Z</time><hdop>3.0</hdop><vdop>3.312</vdop><extensions><gom:speed>1.235</gom:speed></extensions></trkpt>
   <trkpt lat="59.0620940991" lon="30.0112681486"><ele>98.174</ele><time>2026-04-20T12:16:18.697Z</time><hdop>3.0</hdop><vdop>2.5</vdop><extensions><gom:speed>1.073</gom:speed></extensions></trkpt>
   <trkpt lat="59.0621715898" lon="30.0113635347"><ele>98.444</ele><time>2026-04-20T12:16:27.802Z</time><hdop>3.0</hdop><vdop>2.5</vdop><extensions><gom:speed>1.01</gom:speed></extensions></trkpt>
   <trkpt lat="59.0622279581" lon="30.0114996568"><ele>97.383</ele><time>2026-04-20T12:16:36.822Z</time><hdop>3.0</hdop><vdop>2.5</vdop><extensions><gom:speed>1.03</gom:speed></extensions></trkpt>
   <trkpt lat="59.062278459" lon="30.011644999"><ele>97.445</ele><time>2026-04-20T12:16:45.540Z</time><hdop>3.0</hdop><vdop>2.5</vdop><extensions><gom:speed>0.996</gom:speed></extensions></trkpt>
   <trkpt lat="59.0623709953" lon="30.011660757"><ele>97.023</ele><time>2026-04-20T12:16:56.621Z</time><hdop>3.0</hdop><vdop>2.937</vdop><extensions><gom:speed>0.967</gom:speed></extensions></trkpt>
   <trkpt lat="59.0624622742" lon="30.0117230345"><ele>98.398</ele><time>2026-04-20T12:19:40.822Z</time><hdop>3.0</hdop><vdop>2.687</vdop><extensions><gom:speed>0.854</gom:speed></extensions></trkpt>
   <trkpt lat="59.0625552714" lon="30.0116800353"><ele>98.528</ele><time>2026-04-20T12:20:03.283Z</time><hdop>3.0</hdop><vdop>2.875</vdop><extensions><gom:speed>0.853</gom:speed></extensions></trkpt>
   <trkpt lat="59.0626504898" lon="30.0116906804"><ele>98.896</ele><time>2026-04-20T12:20:14.708Z</time><hdop>3.0</hdop><vdop>2.812</vdop><extensions><gom:speed>0.958</gom:speed></extensions></trkpt>
   <trkpt lat="59.0627372844" lon="30.0116439932"><ele>99.113</ele><time>2026-04-20T12:20:26.683Z</time><hdop>3.0</hdop><vdop>4.437</vdop><extensions><gom:speed>0.812</gom:speed></extensions></trkpt>
   <trkpt lat="59.0628326705" lon="30.0116855674"><ele>97.039</ele><time>2026-04-20T12:20:36.822Z</time><hdop>3.0</hdop><vdop>4.562</vdop><extensions><gom:speed>1.013</gom:speed></extensions></trkpt>
   <trkpt lat="59.0629251648" lon="30.0117219449"><ele>97.679</ele><time>2026-04-20T12:20:46.073Z</time><hdop>3.0</hdop><vdop>2.937</vdop><extensions><gom:speed>0.977</gom:speed></extensions></trkpt>
   <trkpt lat="59.0630112888" lon="30.0116652832"><ele>99.763</ele><time>2026-04-20T12:20:55.703Z</time><hdop>3.0</hdop><vdop>3.25</vdop><extensions><gom:speed>0.85</gom:speed></extensions></trkpt>
   <trkpt lat="59.063101981" lon="30.0116761797"><ele>100.787</ele><time>2026-04-20T12:21:05.822Z</time><hdop>3.0</hdop><vdop>3.625</vdop><extensions><gom:speed>0.925</gom:speed></extensions></trkpt>
   <trkpt lat="59.0631928828" lon="30.0116531294"><ele>101.507</ele><time>2026-04-20T12:21:15.626Z</time><hdop>3.0</hdop><vdop>3.062</vdop><extensions><gom:speed>0.986</gom:speed></extensions></trkpt>
   <trkpt lat="59.0632870954" lon="30.0116721563"><ele>99.721</ele><time>2026-04-20T12:21:28.277Z</time><hdop>3.0</hdop><vdop>2.5</vdop><extensions><gom:speed>0.815</gom:speed></extensions></trkpt>
   <trkpt lat="59.0633731775" lon="30.0116157461"><ele>100.253</ele><time>2026-04-20T12:21:40.027Z</time><hdop>3.0</hdop><vdop>3.125</vdop><extensions><gom:speed>0.869</gom:speed></extensions></trkpt>
   <trkpt lat="59.0634566613" lon="30.0115478527"><ele>100.671</ele><time>2026-04-20T12:23:36.638Z</time><hdop>3.0</hdop><vdop>3.625</vdop><extensions><gom:speed>1.118</gom:speed></extensions></trkpt>
   <trkpt lat="59.0635425758" lon="30.0114656263"><ele>102.026</ele><time>2026-04-20T12:23:48.339Z</time><hdop>3.0</hdop><vdop>3.0</vdop><extensions><gom:speed>0.793</gom:speed></extensions></trkpt>
   <trkpt lat="59.0636395963" lon="30.0114439171"><ele>100.192</ele><time>2026-04-20T12:23:57.297Z</time><hdop>3.0</hdop><vdop>3.5</vdop><extensions><gom:speed>1.033</gom:speed></extensions></trkpt>
   <trkpt lat="59.0637205655" lon="30.0113636185"><ele>97.46</ele><time>2026-04-20T12:24:05.822Z</time><hdop>3.0</hdop><vdop>3.062</vdop><extensions><gom:speed>1.013</gom:speed></extensions></trkpt>
   <trkpt lat="59.0638130598" lon="30.0113609363"><ele>97.088</ele><time>2026-04-20T12:24:15.823Z</time><hdop>3.0</hdop><vdop>2.937</vdop><extensions><gom:speed>1.007</gom:speed></extensions></trkpt>
   <trkpt lat="59.0638966693" lon="30.0112947193"><ele>99.842</ele><time>2026-04-20T12:24:23.823Z</time><hdop>3.0</hdop><vdop>4.0</vdop><extensions><gom:speed>1.011</gom:speed></extensions></trkpt>
   <trkpt lat="59.0639734894" lon="30.011397649"><ele>100.933</ele><time>2026-04-20T12:25:56.446Z</time><hdop>4.625</hdop><vdop>2.5</vdop><extensions><gom:speed>0.617</gom:speed></extensions></trkpt>
   <trkpt lat="59.0640657742" lon="30.0114005827"><ele>101.335</ele><time>2026-04-20T12:26:10.823Z</time><hdop>4.375</hdop><vdop>2.625</vdop><extensions><gom:speed>0.022</gom:speed></extensions></trkpt>
   <trkpt lat="59.0641619984" lon="30.0113465194"><ele>102.785</ele><time>2026-04-20T12:28:05.084Z</time><hdop>4.625</hdop><vdop>2.562</vdop><extensions><gom:speed>0.753</gom:speed></extensions></trkpt>
   <trkpt lat="59.0642354658" lon="30.0112372194"><ele>104.7</ele><time>2026-04-20T12:28:13.557Z</time><hdop>3.0</hdop><vdop>3.75</vdop><extensions><gom:speed>0.905</gom:speed></extensions></trkpt>
   <trkpt lat="59.0643338693" lon="30.0112288375"><ele>106.765</ele><time>2026-04-20T12:30:19.907Z</time><hdop>4.0</hdop><vdop>4.0</vdop><extensions><gom:speed>0.95</gom:speed></extensions></trkpt>
   <trkpt lat="59.0644208735" lon="30.0111756962"><ele>108.371</ele><time>2026-04-20T12:30:27.663Z</time><hdop>3.0</hdop><vdop>5.125</vdop><extensions><gom:speed>1.045</gom:speed></extensions></trkpt>
   <trkpt lat="59.0645114819" lon="30.0112158455"><ele>113.116</ele><time>2026-04-20T12:30:35.423Z</time><hdop>3.187</hdop><vdop>5.062</vdop><extensions><gom:speed>1.014</gom:speed></extensions></trkpt>
   <trkpt lat="59.064598486" lon="30.0112672266"><ele>113.078</ele><time>2026-04-20T12:30:42.078Z</time><hdop>3.062</hdop><vdop>3.75</vdop><extensions><gom:speed>0.966</gom:speed></extensions></trkpt>
   <trkpt lat="59.06469207" lon="30.0112816435"><ele>112.487</ele><time>2026-04-20T12:30:58.443Z</time><hdop>3.0</hdop><vdop>4.187</vdop><extensions><gom:speed>1.062</gom:speed></extensions></trkpt>
   <trkpt lat="59.0647826783" lon="30.0112623651"><ele>108.872</ele><time>2026-04-20T12:31:09.823Z</time><hdop>3.0</hdop><vdop>4.0</vdop><extensions><gom:speed>0.883</gom:speed></extensions></trkpt>
   <trkpt lat="59.0648633961" lon="30.0111749419"><ele>107.547</ele><time>2026-04-20T12:31:17.683Z</time><hdop>3.0</hdop><vdop>4.375</vdop><extensions><gom:speed>1.158</gom:speed></extensions></trkpt>
   <trkpt lat="59.0649537949" lon="30.0112068769"><ele>112.347</ele><time>2026-04-20T12:31:25.625Z</time><hdop>3.0</hdop><vdop>2.75</vdop><extensions><gom:speed>1.062</gom:speed></extensions></trkpt>
   <trkpt lat="59.0650433974" lon="30.0111699965"><ele>110.42</ele><time>2026-04-20T12:31:34.708Z</time><hdop>3.0</hdop><vdop>5.25</vdop><extensions><gom:speed>0.925</gom:speed></extensions></trkpt>
   <trkpt lat="59.0651355984" lon="30.0111200404"><ele>113.431</ele><time>2026-04-20T12:31:42.845Z</time><hdop>3.0</hdop><vdop>3.062</vdop><extensions><gom:speed>1.137</gom:speed></extensions></trkpt>
   <trkpt lat="59.0652271707" lon="30.0110770412"><ele>110.879</ele><time>2026-04-20T12:31:52.185Z</time><hdop>3.0</hdop><vdop>4.5</vdop><extensions><gom:speed>1.021</gom:speed></extensions></trkpt>
   <trkpt lat="59.0652916694" lon="30.0109492172"><ele>107.721</ele><time>2026-04-20T12:32:00.639Z</time><hdop>3.062</hdop><vdop>3.625</vdop><extensions><gom:speed>0.937</gom:speed></extensions></trkpt>
   <trkpt lat="59.0653721776" lon="30.0108668231"><ele>109.516</ele><time>2026-04-20T12:32:11.605Z</time><hdop>3.0</hdop><vdop>5.625</vdop><extensions><gom:speed>1.058</gom:speed></extensions></trkpt>
   <trkpt lat="59.0654355867" lon="30.0107285217"><ele>111.792</ele><time>2026-04-20T12:32:21.622Z</time><hdop>3.0</hdop><vdop>4.312</vdop><extensions><gom:speed>0.962</gom:speed></extensions></trkpt>
   <trkpt lat="59.0655112753" lon="30.0106274359"><ele>111.255</ele><time>2026-04-20T12:32:35.945Z</time><hdop>3.062</hdop><vdop>5.5</vdop><extensions><gom:speed>0.787</gom:speed></extensions></trkpt>
   <trkpt lat="59.0656053621" lon="30.0106228259"><ele>106.919</ele><time>2026-04-20T12:32:48.822Z</time><hdop>3.0</hdop><vdop>4.312</vdop><extensions><gom:speed>0.941</gom:speed></extensions></trkpt>
   <trkpt lat="59.0656578748" lon="30.0104688503"><ele>107.525</ele><time>2026-04-20T12:33:14.822Z</time><hdop>3.062</hdop><vdop>4.5</vdop><extensions><gom:speed>0.863</gom:speed></extensions></trkpt>
   <trkpt lat="59.0657441665" lon="30.0104096741"><ele>106.091</ele><time>2026-04-20T12:33:33.622Z</time><hdop>3.0</hdop><vdop>3.125</vdop><extensions><gom:speed>0.716</gom:speed></extensions></trkpt>
   <trkpt lat="59.0658151612" lon="30.0102901482"><ele>109.242</ele><time>2026-04-20T12:33:46.823Z</time><hdop>3.0</hdop><vdop>4.312</vdop><extensions><gom:speed>0.834</gom:speed></extensions></trkpt>
   <trkpt lat="59.0658330985" lon="30.010116978"><ele>108.924</ele><time>2026-04-20T12:33:59.585Z</time><hdop>3.0</hdop><vdop>3.562</vdop><extensions><gom:speed>0.647</gom:speed></extensions></trkpt>
   <trkpt lat="59.0659185939" lon="30.0101707899"><ele>105.585</ele><time>2026-04-20T12:36:09.682Z</time><hdop>3.0</hdop><vdop>3.562</vdop><extensions><gom:speed>0.945</gom:speed></extensions></trkpt>
   <trkpt lat="59.0659405964" lon="30.0099481665"><ele>102.267</ele><time>2026-04-20T12:36:16.081Z</time><hdop>3.812</hdop><vdop>3.437</vdop><extensions><gom:speed>0.955</gom:speed></extensions></trkpt>
   <trkpt lat="59.0660359824" lon="30.0099930935"><ele>100.786</ele><time>2026-04-20T12:36:25.823Z</time><hdop>3.062</hdop><vdop>3.937</vdop><extensions><gom:speed>1.062</gom:speed></extensions></trkpt>
   <trkpt lat="59.0661092822" lon="30.0098660239"><ele>102.974</ele><time>2026-04-20T12:36:35.801Z</time><hdop>3.125</hdop><vdop>3.625</vdop><extensions><gom:speed>0.927</gom:speed></extensions></trkpt>
   <trkpt lat="59.0661817856" lon="30.0097587355"><ele>102.36</ele><time>2026-04-20T12:36:46.823Z</time><hdop>3.0</hdop><vdop>2.875</vdop><extensions><gom:speed>1.046</gom:speed></extensions></trkpt>
   <trkpt lat="59.0662744895" lon="30.0097572268"><ele>101.161</ele><time>2026-04-20T12:37:01.822Z</time><hdop>3.0</hdop><vdop>3.375</vdop><extensions><gom:speed>1.016</gom:speed></extensions></trkpt>
   <trkpt lat="59.0663642597" lon="30.0097379484"><ele>102.313</ele><time>2026-04-20T12:37:13.440Z</time><hdop>3.0</hdop><vdop>3.812</vdop><extensions><gom:speed>0.857</gom:speed></extensions></trkpt>
   <trkpt lat="59.0664659741" lon="30.0097099528"><ele>104.08</ele><time>2026-04-20T12:37:24.804Z</time><hdop>3.0</hdop><vdop>4.625</vdop><extensions><gom:speed>1.098</gom:speed></extensions></trkpt>
   <trkpt lat="59.0665503798" lon="30.0097861443"><ele>105.789</ele><time>2026-04-20T12:37:34.822Z</time><hdop>3.0</hdop><vdop>4.437</vdop><extensions><gom:speed>0.97</gom:speed></extensions></trkpt>
   <trkpt lat="59.0666389765" lon="30.0097549636"><ele>108.648</ele><time>2026-04-20T12:37:57.823Z</time><hdop>3.0</hdop><vdop>3.625</vdop><extensions><gom:speed>0.185</gom:speed></extensions></trkpt>
   <trkpt lat="59.0667052774" lon="30.0098819495"><ele>113.086</ele><time>2026-04-20T12:38:23.822Z</time><hdop>3.0</hdop><vdop>2.875</vdop><extensions><gom:speed>0.365</gom:speed></extensions></trkpt>
   <trkpt lat="59.0667979812" lon="30.0098617491"><ele>114.537</ele><time>2026-04-20T12:38:48.823Z</time><hdop>3.0</hdop><vdop>2.812</vdop><extensions><gom:speed>0.776</gom:speed></extensions></trkpt>
   <trkpt lat="59.0668922776" lon="30.0098643475"><ele>115.114</ele><time>2026-04-20T12:39:40.722Z</time><hdop>3.125</hdop><vdop>3.75</vdop><extensions><gom:speed>0.936</gom:speed></extensions></trkpt>
   <trkpt lat="59.0669634819" lon="30.0097392895"><ele>111.48</ele><time>2026-04-20T12:39:50.262Z</time><hdop>3.0</hdop><vdop>3.562</vdop><extensions><gom:speed>0.973</gom:speed></extensions></trkpt>
   <trkpt lat="59.0670404697" lon="30.0096382875"><ele>113.858</ele><time>2026-04-20T12:39:59.364Z</time><hdop>3.0</hdop><vdop>3.687</vdop><extensions><gom:speed>0.917</gom:speed></extensions></trkpt>
   <trkpt lat="59.0671367778" lon="30.0096000661"><ele>114.335</ele><time>2026-04-20T12:40:10.301Z</time><hdop>3.0</hdop><vdop>3.25</vdop><extensions><gom:speed>0.841</gom:speed></extensions></trkpt>
   <trkpt lat="59.0672172859" lon="30.0095150736"><ele>112.276</ele><time>2026-04-20T12:40:19.823Z</time><hdop>3.0</hdop><vdop>3.25</vdop><extensions><gom:speed>0.939</gom:speed></extensions></trkpt>
   <trkpt lat="59.0673069723" lon="30.0094656203"><ele>107.628</ele><time>2026-04-20T12:40:32.423Z</time><hdop>3.0</hdop><vdop>3.875</vdop><extensions><gom:speed>0.884</gom:speed></extensions></trkpt>
   <trkpt lat="59.0673878996" lon="30.0093723298"><ele>108.75</ele><time>2026-04-20T12:40:43.218Z</time><hdop>3.0</hdop><vdop>4.187</vdop><extensions><gom:speed>0.985</gom:speed></extensions></trkpt>
   <trkpt lat="59.0674820703" lon="30.0094030913"><ele>107.241</ele><time>2026-04-20T12:40:52.425Z</time><hdop>3.0</hdop><vdop>4.25</vdop><extensions><gom:speed>0.905</gom:speed></extensions></trkpt>
   <trkpt lat="59.0675713794" lon="30.0094230403"><ele>106.441</ele><time>2026-04-20T12:41:03.822Z</time><hdop>3.062</hdop><vdop>3.812</vdop><extensions><gom:speed>0.935</gom:speed></extensions></trkpt>
   <trkpt lat="59.0676577969" lon="30.0094716553"><ele>104.083</ele><time>2026-04-20T12:41:13.823Z</time><hdop>3.0</hdop><vdop>4.125</vdop><extensions><gom:speed>0.877</gom:speed></extensions></trkpt>
   <trkpt lat="59.0677470641" lon="30.0094090425"><ele>111.228</ele><time>2026-04-20T12:43:23.822Z</time><hdop>3.437</hdop><vdop>4.625</vdop><extensions><gom:speed>0.876</gom:speed></extensions></trkpt>
   <trkpt lat="59.0678297935" lon="30.0093391374"><ele>112.78</ele><time>2026-04-20T12:43:33.725Z</time><hdop>3.0</hdop><vdop>3.937</vdop><extensions><gom:speed>0.866</gom:speed></extensions></trkpt>
   <trkpt lat="59.0679116847" lon="30.0092398957"><ele>114.485</ele><time>2026-04-20T12:43:41.682Z</time><hdop>3.0</hdop><vdop>4.062</vdop><extensions><gom:speed>1.071</gom:speed></extensions></trkpt>
   <trkpt lat="59.0680072803" lon="30.0092213717"><ele>113.405</ele><time>2026-04-20T12:43:51.820Z</time><hdop>3.0</hdop><vdop>3.062</vdop><extensions><gom:speed>0.761</gom:speed></extensions></trkpt>
   <trkpt lat="59.0680770597" lon="30.0090986606"><ele>111.485</ele><time>2026-04-20T12:44:00.822Z</time><hdop>3.0</hdop><vdop>3.687</vdop><extensions><gom:speed>0.915</gom:speed></extensions></trkpt>
   <trkpt lat="59.0681633933" lon="30.0090246484"><ele>109.141</ele><time>2026-04-20T12:44:11.822Z</time><hdop>3.0</hdop><vdop>5.562</vdop><extensions><gom:speed>0.938</gom:speed></extensions></trkpt>
   <trkpt lat="59.0682467932" lon="30.0091080484"><ele>103.296</ele><time>2026-04-20T12:44:20.804Z</time><hdop>3.0</hdop><vdop>4.562</vdop><extensions><gom:speed>0.995</gom:speed></extensions></trkpt>
   <trkpt lat="59.0683097832" lon="30.0092486967"><ele>105.423</ele><time>2026-04-20T12:44:29.601Z</time><hdop>3.0</hdop><vdop>3.625</vdop><extensions><gom:speed>1.001</gom:speed></extensions></trkpt>
   <trkpt lat="59.0683998887" lon="30.0092613534"><ele>105.081</ele><time>2026-04-20T12:44:39.500Z</time><hdop>3.0</hdop><vdop>3.375</vdop><extensions><gom:speed>0.931</gom:speed></extensions></trkpt>
   <trkpt lat="59.0684912933" lon="30.0092705735"><ele>105.072</ele><time>2026-04-20T12:44:50.823Z</time><hdop>3.0</hdop><vdop>3.562</vdop><extensions><gom:speed>0.944</gom:speed></extensions></trkpt>
   <trkpt lat="59.0685852964" lon="30.0092558213"><ele>106.703</ele><time>2026-04-20T12:45:01.800Z</time><hdop>3.0</hdop><vdop>4.0</vdop><extensions><gom:speed>0.973</gom:speed></extensions></trkpt>
   <trkpt lat="59.0686702889" lon="30.0093256426"><ele>102.907</ele><time>2026-04-20T12:45:15.500Z</time><hdop>3.0</hdop><vdop>5.437</vdop><extensions><gom:speed>0.77</gom:speed></extensions></trkpt>
   <trkpt lat="59.068765172" lon="30.0093236309"><ele>100.038</ele><time>2026-04-20T12:45:26.823Z</time><hdop>3.0</hdop><vdop>3.812</vdop><extensions><gom:speed>0.899</gom:speed></extensions></trkpt>
   <trkpt lat="59.0688594684" lon="30.0093295821"><ele>99.22</ele><time>2026-04-20T12:45:37.439Z</time><hdop>3.0</hdop><vdop>3.875</vdop><extensions><gom:speed>0.878</gom:speed></extensions></trkpt>
   <trkpt lat="59.0689512922" lon="30.0093455915"><ele>99.631</ele><time>2026-04-20T12:45:49.319Z</time><hdop>3.0</hdop><vdop>2.75</vdop><extensions><gom:speed>0.878</gom:speed></extensions></trkpt>
   <trkpt lat="59.0690435769" lon="30.0093867466"><ele>98.153</ele><time>2026-04-20T12:45:59.649Z</time><hdop>3.0</hdop><vdop>4.312</vdop><extensions><gom:speed>0.902</gom:speed></extensions></trkpt>
   <trkpt lat="59.0691369932" lon="30.0093982298"><ele>97.732</ele><time>2026-04-20T12:46:10.307Z</time><hdop>3.0</hdop><vdop>3.937</vdop><extensions><gom:speed>1.0</gom:speed></extensions></trkpt>
   <trkpt lat="59.069229278" lon="30.0094230403"><ele>99.561</ele><time>2026-04-20T12:46:19.823Z</time><hdop>3.0</hdop><vdop>2.687</vdop><extensions><gom:speed>1.107</gom:speed></extensions></trkpt>
   <trkpt lat="59.0693129713" lon="30.0093253911"><ele>103.263</ele><time>2026-04-20T12:46:29.542Z</time><hdop>3.0</hdop><vdop>2.625</vdop><extensions><gom:speed>0.982</gom:speed></extensions></trkpt>
   <trkpt lat="59.0694002688" lon="30.0092802965"><ele>99.136</ele><time>2026-04-20T12:46:41.222Z</time><hdop>3.25</hdop><vdop>3.562</vdop><extensions><gom:speed>0.939</gom:speed></extensions></trkpt>
   <trkpt lat="59.0694856804" lon="30.0092249759"><ele>99.279</ele><time>2026-04-20T12:46:50.581Z</time><hdop>3.0</hdop><vdop>3.625</vdop><extensions><gom:speed>0.943</gom:speed></extensions></trkpt>
   <trkpt lat="59.0695804797" lon="30.0092179351"><ele>98.745</ele><time>2026-04-20T12:46:59.922Z</time><hdop>3.0</hdop><vdop>6.625</vdop><extensions><gom:speed>1.001</gom:speed></extensions></trkpt>
   <trkpt lat="59.0696653884" lon="30.0093061965"><ele>105.674</ele><time>2026-04-20T12:49:09.808Z</time><hdop>3.187</hdop><vdop>4.375</vdop><extensions><gom:speed>0.566</gom:speed></extensions></trkpt>
   <trkpt lat="59.0697537756" lon="30.0092695676"><ele>106.123</ele><time>2026-04-20T12:49:15.326Z</time><hdop>3.312</hdop><vdop>4.375</vdop><extensions><gom:speed>0.856</gom:speed></extensions></trkpt>
   <trkpt lat="59.0698393967" lon="30.0091851619"><ele>105.176</ele><time>2026-04-20T12:49:25.757Z</time><hdop>3.0</hdop><vdop>2.937</vdop><extensions><gom:speed>0.911</gom:speed></extensions></trkpt>
   <trkpt lat="59.069934196" lon="30.0091451802"><ele>103.566</ele><time>2026-04-20T12:49:42.823Z</time><hdop>3.0</hdop><vdop>3.0</vdop><extensions><gom:speed>0.779</gom:speed></extensions></trkpt>
   <trkpt lat="59.0700262712" lon="30.0091624469"><ele>102.83</ele><time>2026-04-20T12:49:54.823Z</time><hdop>3.0</hdop><vdop>3.0</vdop><extensions><gom:speed>0.843</gom:speed></extensions></trkpt>
   <trkpt lat="59.0701196876" lon="30.0091925379"><ele>106.582</ele><time>2026-04-20T12:50:04.459Z</time><hdop>3.375</hdop><vdop>3.75</vdop><extensions><gom:speed>1.005</gom:speed></extensions></trkpt>
   <trkpt lat="59.0702085776" lon="30.009146186"><ele>103.931</ele><time>2026-04-20T12:50:13.740Z</time><hdop>3.0</hdop><vdop>2.625</vdop><extensions><gom:speed>1.028</gom:speed></extensions></trkpt>
   <trkpt lat="59.0702967972" lon="30.0091089704"><ele>105.763</ele><time>2026-04-20T12:50:25.382Z</time><hdop>3.187</hdop><vdop>2.75</vdop><extensions><gom:speed>1.037</gom:speed></extensions></trkpt>
   <trkpt lat="59.0703967933" lon="30.0091125746"><ele>105.276</ele><time>2026-04-20T12:50:35.738Z</time><hdop>3.0</hdop><vdop>2.875</vdop><extensions><gom:speed>0.976</gom:speed></extensions></trkpt>
   <trkpt lat="59.0704874855" lon="30.0090743531"><ele>107.266</ele><time>2026-04-20T12:50:45.486Z</time><hdop>3.0</hdop><vdop>2.625</vdop><extensions><gom:speed>1.095</gom:speed></extensions></trkpt>
   <trkpt lat="59.0705803989" lon="30.0091096409"><ele>110.827</ele><time>2026-04-20T12:50:53.740Z</time><hdop>3.0</hdop><vdop>2.687</vdop><extensions><gom:speed>1.072</gom:speed></extensions></trkpt>
   <trkpt lat="59.0706711749" lon="30.0090905302"><ele>110.029</ele><time>2026-04-20T12:51:02.725Z</time><hdop>3.0</hdop><vdop>2.625</vdop><extensions><gom:speed>1.073</gom:speed></extensions></trkpt>
   <trkpt lat="59.0707641721" lon="30.0091078807"><ele>109.46</ele><time>2026-04-20T12:51:15.678Z</time><hdop>3.0</hdop><vdop>2.5</vdop><extensions><gom:speed>0.764</gom:speed></extensions></trkpt>
   <trkpt lat="59.0708000885" lon="30.0092806317"><ele>104.681</ele><time>2026-04-20T12:52:09.743Z</time><hdop>3.0</hdop><vdop>3.375</vdop><extensions><gom:speed>1.113</gom:speed></extensions></trkpt>
   <trkpt lat="59.0707979931" lon="30.0094627705"><ele>102.98</ele><time>2026-04-20T12:52:16.822Z</time><hdop>3.0</hdop><vdop>2.687</vdop><extensions><gom:speed>1.074</gom:speed></extensions></trkpt>
   <trkpt lat="59.0708369689" lon="30.0096245412"><ele>101.207</ele><time>2026-04-20T12:52:24.618Z</time><hdop>3.0</hdop><vdop>3.625</vdop><extensions><gom:speed>1.168</gom:speed></extensions></trkpt>
   <trkpt lat="59.0708490808" lon="30.009797879"><ele>101.072</ele><time>2026-04-20T12:52:33.357Z</time><hdop>3.125</hdop><vdop>2.562</vdop><extensions><gom:speed>1.199</gom:speed></extensions></trkpt>
   <trkpt lat="59.0708152598" lon="30.0099722226"><ele>100.262</ele><time>2026-04-20T12:52:41.107Z</time><hdop>3.0</hdop><vdop>2.937</vdop><extensions><gom:speed>1.339</gom:speed></extensions></trkpt>
   <trkpt lat="59.0708083866" lon="30.0101479911"><ele>98.662</ele><time>2026-04-20T12:52:48.383Z</time><hdop>3.0</hdop><vdop>2.937</vdop><extensions><gom:speed>1.292</gom:speed></extensions></trkpt>
   <trkpt lat="59.0708631624" lon="30.0102895614"><ele>99.794</ele><time>2026-04-20T12:52:53.823Z</time><hdop>3.0</hdop><vdop>3.75</vdop><extensions><gom:speed>1.485</gom:speed></extensions></trkpt>
   <trkpt lat="59.0709389767" lon="30.0103923236"><ele>103.026</ele><time>2026-04-20T12:52:59.560Z</time><hdop>3.0</hdop><vdop>3.375</vdop><extensions><gom:speed>1.391</gom:speed></extensions></trkpt>
   <trkpt lat="59.070926781" lon="30.0105766416"><ele>97.338</ele><time>2026-04-20T12:53:11.827Z</time><hdop>3.0</hdop><vdop>3.5</vdop><extensions><gom:speed>0.817</gom:speed></extensions></trkpt>
   <trkpt lat="59.0709574588" lon="30.0107603729"><ele>100.118</ele><time>2026-04-20T12:53:21.761Z</time><hdop>3.062</hdop><vdop>3.0</vdop><extensions><gom:speed>1.226</gom:speed></extensions></trkpt>
   <trkpt lat="59.070936965" lon="30.010937734"><ele>99.509</ele><time>2026-04-20T12:53:29.822Z</time><hdop>3.0</hdop><vdop>3.812</vdop><extensions><gom:speed>0.946</gom:speed></extensions></trkpt>
   <trkpt lat="59.0710011704" lon="30.0110678211"><ele>97.945</ele><time>2026-04-20T12:53:39.698Z</time><hdop>3.0</hdop><vdop>4.125</vdop><extensions><gom:speed>1.025</gom:speed></extensions></trkpt>
   <trkpt lat="59.0709867954" lon="30.011250379"><ele>101.354</ele><time>2026-04-20T12:53:49.813Z</time><hdop>3.125</hdop><vdop>3.75</vdop><extensions><gom:speed>1.091</gom:speed></extensions></trkpt>
   <trkpt lat="59.0710091751" lon="30.0114275724"><ele>106.386</ele><time>2026-04-20T12:54:05.823Z</time><hdop>3.0</hdop><vdop>2.625</vdop><extensions><gom:speed>0.647</gom:speed></extensions></trkpt>
   <trkpt lat="59.07107359" lon="30.0115541392"><ele>102.396</ele><time>2026-04-20T12:54:51.563Z</time><hdop>3.437</hdop><vdop>3.812</vdop><extensions><gom:speed>1.612</gom:speed></extensions></trkpt>
   <trkpt lat="59.0710877974" lon="30.0117285666"><ele>102.285</ele><time>2026-04-20T12:54:59.158Z</time><hdop>3.0</hdop><vdop>2.937</vdop><extensions><gom:speed>1.068</gom:speed></extensions></trkpt>
   <trkpt lat="59.0711098837" lon="30.0119111244"><ele>102.883</ele><time>2026-04-20T12:55:06.744Z</time><hdop>3.0</hdop><vdop>3.75</vdop><extensions><gom:speed>1.249</gom:speed></extensions></trkpt>
   <trkpt lat="59.0711244682" lon="30.0121000525"><ele>101.08</ele><time>2026-04-20T12:55:13.822Z</time><hdop>3.062</hdop><vdop>3.562</vdop><extensions><gom:speed>1.14</gom:speed></extensions></trkpt>
   <trkpt lat="59.0711451715" lon="30.0122740608"><ele>102.112</ele><time>2026-04-20T12:55:21.822Z</time><hdop>3.0</hdop><vdop>3.875</vdop><extensions><gom:speed>1.085</gom:speed></extensions></trkpt>
   <trkpt lat="59.0711710716" lon="30.0124498293"><ele>102.516</ele><time>2026-04-20T12:55:31.244Z</time><hdop>3.0</hdop><vdop>2.562</vdop><extensions><gom:speed>0.875</gom:speed></extensions></trkpt>
   <trkpt lat="59.0711913977" lon="30.0126219936"><ele>102.859</ele><time>2026-04-20T12:55:41.619Z</time><hdop>3.0</hdop><vdop>3.5</vdop><extensions><gom:speed>0.966</gom:speed></extensions></trkpt>
   <trkpt lat="59.0712357799" lon="30.0127863627"><ele>104.359</ele><time>2026-04-20T12:55:52.544Z</time><hdop>3.0</hdop><vdop>2.5</vdop><extensions><gom:speed>0.834</gom:speed></extensions></trkpt>
   <trkpt lat="59.071162061" lon="30.0128883705"><ele>102.263</ele><time>2026-04-20T12:58:33.361Z</time><hdop>3.25</hdop><vdop>2.812</vdop><extensions><gom:speed>0.86</gom:speed></extensions></trkpt>
   <trkpt lat="59.0710870849" lon="30.0129952398"><ele>102.032</ele><time>2026-04-20T12:58:43.499Z</time><hdop>3.0</hdop><vdop>2.625</vdop><extensions><gom:speed>0.925</gom:speed></extensions></trkpt>
   <trkpt lat="59.0709974824" lon="30.0129368179"><ele>100.686</ele><time>2026-04-20T12:58:53.822Z</time><hdop>3.0</hdop><vdop>2.5</vdop><extensions><gom:speed>0.75</gom:speed></extensions></trkpt>
   <trkpt lat="59.0709298823" lon="30.0130764604"><ele>98.993</ele><time>2026-04-20T12:59:04.599Z</time><hdop>3.0</hdop><vdop>2.5</vdop><extensions><gom:speed>1.103</gom:speed></extensions></trkpt>
   <trkpt lat="59.070839693" lon="30.01314427"><ele>97.079</ele><time>2026-04-20T12:59:17.240Z</time><hdop>3.0</hdop><vdop>2.5</vdop><extensions><gom:speed>0.854</gom:speed></extensions></trkpt>
   <trkpt lat="59.0707618671" lon="30.0132387341"><ele>97.592</ele><time>2026-04-20T12:59:29.602Z</time><hdop>3.0</hdop><vdop>2.625</vdop><extensions><gom:speed>0.907</gom:speed></extensions></trkpt>
   <trkpt lat="59.0706811912" lon="30.013323978"><ele>98.003</ele><time>2026-04-20T12:59:39.359Z</time><hdop>3.0</hdop><vdop>2.937</vdop><extensions><gom:speed>0.966</gom:speed></extensions></trkpt>
   <trkpt lat="59.0706660619" lon="30.0135022611"><ele>98.014</ele><time>2026-04-20T12:59:51.343Z</time><hdop>3.0</hdop><vdop>3.875</vdop><extensions><gom:speed>1.014</gom:speed></extensions></trkpt>
   <trkpt lat="59.0706408743" lon="30.0136818853"><ele>98.883</ele><time>2026-04-20T13:00:00.698Z</time><hdop>3.0</hdop><vdop>2.812</vdop><extensions><gom:speed>0.986</gom:speed></extensions></trkpt>
   <trkpt lat="59.0706017727" lon="30.0138443266"><ele>100.565</ele><time>2026-04-20T13:00:12.325Z</time><hdop>3.0</hdop><vdop>2.75</vdop><extensions><gom:speed>0.94</gom:speed></extensions></trkpt>
   <trkpt lat="59.0705309875" lon="30.0139541295"><ele>97.858</ele><time>2026-04-20T13:00:23.684Z</time><hdop>3.0</hdop><vdop>2.5</vdop><extensions><gom:speed>0.878</gom:speed></extensions></trkpt>
   <trkpt lat="59.0704419717" lon="30.0140282255"><ele>93.981</ele><time>2026-04-20T13:00:36.484Z</time><hdop>3.0</hdop><vdop>2.5</vdop><extensions><gom:speed>0.939</gom:speed></extensions></trkpt>
   <trkpt lat="59.0703549676" lon="30.0140753318"><ele>95.75</ele><time>2026-04-20T13:00:45.822Z</time><hdop>3.0</hdop><vdop>2.5</vdop><extensions><gom:speed>0.93</gom:speed></extensions></trkpt>
   <trkpt lat="59.0702800753" lon="30.0141763337"><ele>97.134</ele><time>2026-04-20T13:00:55.542Z</time><hdop>3.0</hdop><vdop>2.5</vdop><extensions><gom:speed>0.886</gom:speed></extensions></trkpt>
   <trkpt lat="59.0701893831" lon="30.014193349"><ele>97.325</ele><time>2026-04-20T13:01:06.325Z</time><hdop>3.0</hdop><vdop>2.5</vdop><extensions><gom:speed>0.911</gom:speed></extensions></trkpt>
   <trkpt lat="59.0700966792" lon="30.0141666946"><ele>96.6</ele><time>2026-04-20T13:01:15.918Z</time><hdop>3.0</hdop><vdop>2.75</vdop><extensions><gom:speed>1.032</gom:speed></extensions></trkpt>
   <trkpt lat="59.0700156681" lon="30.0142556265"><ele>96.515</ele><time>2026-04-20T13:01:24.818Z</time><hdop>3.062</hdop><vdop>2.5</vdop><extensions><gom:speed>0.924</gom:speed></extensions></trkpt>
   <trkpt lat="59.0699250598" lon="30.0142480828"><ele>97.712</ele><time>2026-04-20T13:01:34.840Z</time><hdop>3.0</hdop><vdop>2.687</vdop><extensions><gom:speed>0.886</gom:speed></extensions></trkpt>
   <trkpt lat="59.0698382652" lon="30.0141782616"><ele>97.29</ele><time>2026-04-20T13:01:44.822Z</time><hdop>3.0</hdop><vdop>2.5</vdop><extensions><gom:speed>0.916</gom:speed></extensions></trkpt>
   <trkpt lat="59.0697441783" lon="30.0141772558"><ele>97.395</ele><time>2026-04-20T13:01:55.823Z</time><hdop>3.0</hdop><vdop>2.562</vdop><extensions><gom:speed>0.97</gom:speed></extensions></trkpt>
   <trkpt lat="59.0696467806" lon="30.0141773396"><ele>97.877</ele><time>2026-04-20T13:02:05.661Z</time><hdop>3.0</hdop><vdop>2.812</vdop><extensions><gom:speed>0.961</gom:speed></extensions></trkpt>
   <trkpt lat="59.0695641769" lon="30.0140841328"><ele>96.144</ele><time>2026-04-20T13:02:15.788Z</time><hdop>3.0</hdop><vdop>2.5</vdop><extensions><gom:speed>0.855</gom:speed></extensions></trkpt>
   <trkpt lat="59.0694815733" lon="30.0141636771"><ele>97.339</ele><time>2026-04-20T13:02:30.405Z</time><hdop>3.0</hdop><vdop>3.187</vdop><extensions><gom:speed>0.852</gom:speed></extensions></trkpt>
   <trkpt lat="59.0693892885" lon="30.0142031558"><ele>97.479</ele><time>2026-04-20T13:02:44.196Z</time><hdop>3.0</hdop><vdop>2.5</vdop><extensions><gom:speed>0.738</gom:speed></extensions></trkpt>
   <trkpt lat="59.0692977581" lon="30.0142007251"><ele>97.203</ele><time>2026-04-20T13:02:56.744Z</time><hdop>3.0</hdop><vdop>3.062</vdop><extensions><gom:speed>0.851</gom:speed></extensions></trkpt>
   <trkpt lat="59.0692095805" lon="30.0141468294"><ele>96.148</ele><time>2026-04-20T13:03:06.822Z</time><hdop>3.0</hdop><vdop>3.0</vdop><extensions><gom:speed>0.862</gom:speed></extensions></trkpt>
   <trkpt lat="59.0691184692" lon="30.0141708855"><ele>96.738</ele><time>2026-04-20T13:03:16.505Z</time><hdop>3.0</hdop><vdop>3.25</vdop><extensions><gom:speed>1.059</gom:speed></extensions></trkpt>
   <trkpt lat="59.0692035874" lon="30.0141028245"><ele>99.679</ele><time>2026-04-20T13:03:50.286Z</time><hdop>3.0</hdop><vdop>3.0</vdop><extensions><gom:speed>0.589</gom:speed></extensions></trkpt>
   <trkpt lat="59.0690344826" lon="30.0141947739"><ele>99.375</ele><time>2026-04-20T13:04:34.405Z</time><hdop>5.0</hdop><vdop>3.875</vdop><extensions><gom:speed>0.945</gom:speed></extensions></trkpt>
   <trkpt lat="59.0689542677" lon="30.0142764975"><ele>98.95</ele><time>2026-04-20T13:04:38.823Z</time><hdop>3.812</hdop><vdop>5.187</vdop><extensions><gom:speed>0.945</gom:speed></extensions></trkpt>
   <trkpt lat="59.0688626954" lon="30.0143267889"><ele>98.594</ele><time>2026-04-20T13:04:48.606Z</time><hdop>3.0</hdop><vdop>4.125</vdop><extensions><gom:speed>1.006</gom:speed></extensions></trkpt>
   <trkpt lat="59.068773973" lon="30.0143752363"><ele>99.33</ele><time>2026-04-20T13:04:56.823Z</time><hdop>3.0</hdop><vdop>4.625</vdop><extensions><gom:speed>0.974</gom:speed></extensions></trkpt>
   <trkpt lat="59.0686881842" lon="30.0144423753"><ele>98.459</ele><time>2026-04-20T13:05:05.823Z</time><hdop>3.062</hdop><vdop>6.187</vdop><extensions><gom:speed>0.985</gom:speed></extensions></trkpt>
   <trkpt lat="59.068591499" lon="30.0144341611"><ele>102.097</ele><time>2026-04-20T13:05:14.479Z</time><hdop>3.0</hdop><vdop>5.125</vdop><extensions><gom:speed>0.83</gom:speed></extensions></trkpt>
   <trkpt lat="59.0685007649" lon="30.0144890625"><ele>98.433</ele><time>2026-04-20T13:07:45.742Z</time><hdop>3.187</hdop><vdop>2.5</vdop><extensions><gom:speed>1.018</gom:speed></extensions></trkpt>
   <trkpt lat="59.0684195861" lon="30.01458009"><ele>96.523</ele><time>2026-04-20T13:07:54.834Z</time><hdop>3.062</hdop><vdop>2.5</vdop><extensions><gom:speed>0.994</gom:speed></extensions></trkpt>
   <trkpt lat="59.068326086" lon="30.0145535194"><ele>97.711</ele><time>2026-04-20T13:08:04.486Z</time><hdop>3.0</hdop><vdop>2.5</vdop><extensions><gom:speed>0.928</gom:speed></extensions></trkpt>
   <trkpt lat="59.0682470866" lon="30.0146511686"><ele>100.772</ele><time>2026-04-20T13:08:17.144Z</time><hdop>3.0</hdop><vdop>2.875</vdop><extensions><gom:speed>0.813</gom:speed></extensions></trkpt>
   <trkpt lat="59.0681561848" lon="30.0146278669"><ele>100.336</ele><time>2026-04-20T13:08:30.822Z</time><hdop>3.0</hdop><vdop>3.0</vdop><extensions><gom:speed>0.883</gom:speed></extensions></trkpt>
   <trkpt lat="59.0680674624" lon="30.0145777431"><ele>99.64</ele><time>2026-04-20T13:08:42.685Z</time><hdop>3.0</hdop><vdop>3.375</vdop><extensions><gom:speed>0.78</gom:speed></extensions></trkpt>
   <trkpt lat="59.0679829728" lon="30.0145178963"><ele>99.636</ele><time>2026-04-20T13:08:53.727Z</time><hdop>3.0</hdop><vdop>4.437</vdop><extensions><gom:speed>0.89</gom:speed></extensions></trkpt>
   <trkpt lat="59.067892574" lon="30.0145959318"><ele>99.811</ele><time>2026-04-20T13:09:08.700Z</time><hdop>3.0</hdop><vdop>2.5</vdop><extensions><gom:speed>0.956</gom:speed></extensions></trkpt>
   <trkpt lat="59.0678073719" lon="30.0146544375"><ele>96.55</ele><time>2026-04-20T13:09:21.341Z</time><hdop>3.0</hdop><vdop>2.5</vdop><extensions><gom:speed>0.846</gom:speed></extensions></trkpt>
   <trkpt lat="59.0677159673" lon="30.0146920722"><ele>99.544</ele><time>2026-04-20T13:09:31.563Z</time><hdop>3.0</hdop><vdop>2.5</vdop><extensions><gom:speed>0.715</gom:speed></extensions></trkpt>
   <trkpt lat="59.0676269934" lon="30.0147314672"><ele>100.012</ele><time>2026-04-20T13:09:42.485Z</time><hdop>3.0</hdop><vdop>3.375</vdop><extensions><gom:speed>0.852</gom:speed></extensions></trkpt>
   <trkpt lat="59.0675352953" lon="30.0146887195"><ele>99.673</ele><time>2026-04-20T13:09:52.823Z</time><hdop>3.062</hdop><vdop>3.75</vdop><extensions><gom:speed>0.792</gom:speed></extensions></trkpt>
   <trkpt lat="59.0674427591" lon="30.0146665913"><ele>99.554</ele><time>2026-04-20T13:10:06.822Z</time><hdop>3.0</hdop><vdop>2.937</vdop><extensions><gom:speed>0.895</gom:speed></extensions></trkpt>
   <trkpt lat="59.0673664838" lon="30.0147672579"><ele>99.358</ele><time>2026-04-20T13:10:18.664Z</time><hdop>3.0</hdop><vdop>3.25</vdop><extensions><gom:speed>0.964</gom:speed></extensions></trkpt>
   <trkpt lat="59.0672853889" lon="30.0148482271"><ele>99.587</ele><time>2026-04-20T13:10:30.823Z</time><hdop>3.0</hdop><vdop>2.5</vdop><extensions><gom:speed>0.894</gom:speed></extensions></trkpt>
   <trkpt lat="59.0671999773" lon="30.0149151985"><ele>94.767</ele><time>2026-04-20T13:10:48.640Z</time><hdop>3.0</hdop><vdop>2.5</vdop><extensions><gom:speed>0.878</gom:speed></extensions></trkpt>
   <trkpt lat="59.067109788" lon="30.0149567727"><ele>94.872</ele><time>2026-04-20T13:10:58.377Z</time><hdop>3.0</hdop><vdop>2.5</vdop><extensions><gom:speed>0.872</gom:speed></extensions></trkpt>
   <trkpt lat="59.067017168" lon="30.0149667472"><ele>96.226</ele><time>2026-04-20T13:11:10.822Z</time><hdop>3.0</hdop><vdop>2.5</vdop><extensions><gom:speed>0.795</gom:speed></extensions></trkpt>
   <trkpt lat="59.0669224944" lon="30.014945541"><ele>96.583</ele><time>2026-04-20T13:11:22.721Z</time><hdop>3.0</hdop><vdop>2.875</vdop><extensions><gom:speed>0.745</gom:speed></extensions></trkpt>
   <trkpt lat="59.0668304611" lon="30.0149752968"><ele>96.29</ele><time>2026-04-20T13:11:34.379Z</time><hdop>3.0</hdop><vdop>2.562</vdop><extensions><gom:speed>0.818</gom:speed></extensions></trkpt>
   <trkpt lat="59.0667404814" lon="30.0150477164"><ele>97.024</ele><time>2026-04-20T13:11:45.529Z</time><hdop>3.0</hdop><vdop>2.5</vdop><extensions><gom:speed>0.743</gom:speed></extensions></trkpt>
   <trkpt lat="59.0666604761" lon="30.0151523225"><ele>92.62</ele><time>2026-04-20T13:13:47.822Z</time><hdop>3.312</hdop><vdop>2.562</vdop><extensions><gom:speed>0.971</gom:speed></extensions></trkpt>
   <trkpt lat="59.066564671" lon="30.0151315354"><ele>94.409</ele><time>2026-04-20T13:13:56.202Z</time><hdop>3.0</hdop><vdop>2.5</vdop><extensions><gom:speed>1.008</gom:speed></extensions></trkpt>
   <trkpt lat="59.0665008847" lon="30.0152686634"><ele>96.626</ele><time>2026-04-20T13:14:05.799Z</time><hdop>3.0</hdop><vdop>2.687</vdop><extensions><gom:speed>1.018</gom:speed></extensions></trkpt>
   <trkpt lat="59.0665080931" lon="30.0150899612"><ele>94.678</ele><time>2026-04-20T13:14:14.585Z</time><hdop>3.0</hdop><vdop>3.562</vdop><extensions><gom:speed>0.823</gom:speed></extensions></trkpt>
   <trkpt lat="59.0664999627" lon="30.0152812362"><ele>98.409</ele><time>2026-04-20T13:25:50.803Z</time><hdop>3.0</hdop><vdop>3.437</vdop><extensions><gom:speed>0.813</gom:speed></extensions></trkpt>
   <trkpt lat="59.0664623698" lon="30.0154517241"><ele>98.446</ele><time>2026-04-20T13:25:58.802Z</time><hdop>3.0</hdop><vdop>3.75</vdop><extensions><gom:speed>0.973</gom:speed></extensions></trkpt>
   <trkpt lat="59.0663950632" lon="30.0155737646"><ele>98.855</ele><time>2026-04-20T13:26:09.397Z</time><hdop>3.0</hdop><vdop>3.5</vdop><extensions><gom:speed>0.936</gom:speed></extensions></trkpt>
   <trkpt lat="59.0662995933" lon="30.0155593478"><ele>97.449</ele><time>2026-04-20T13:26:24.529Z</time><hdop>3.0</hdop><vdop>2.875</vdop><extensions><gom:speed>0.878</gom:speed></extensions></trkpt>
   <trkpt lat="59.0662156904" lon="30.0156303425"><ele>94.989</ele><time>2026-04-20T13:26:33.631Z</time><hdop>3.0</hdop><vdop>2.5</vdop><extensions><gom:speed>0.93</gom:speed></extensions></trkpt>
   <trkpt lat="59.0661564723" lon="30.0157753494"><ele>94.567</ele><time>2026-04-20T13:26:44.711Z</time><hdop>3.0</hdop><vdop>2.5</vdop><extensions><gom:speed>0.922</gom:speed></extensions></trkpt>
   <trkpt lat="59.0660770957" lon="30.015867718"><ele>94.586</ele><time>2026-04-20T13:26:56.289Z</time><hdop>3.0</hdop><vdop>2.625</vdop><extensions><gom:speed>1.021</gom:speed></extensions></trkpt>
   <trkpt lat="59.0659906782" lon="30.0158197735"><ele>94.13</ele><time>2026-04-20T13:27:04.802Z</time><hdop>3.0</hdop><vdop>2.5</vdop><extensions><gom:speed>0.955</gom:speed></extensions></trkpt>
   <trkpt lat="59.0659136905" lon="30.0157224596"><ele>94.846</ele><time>2026-04-20T13:27:14.487Z</time><hdop>3.0</hdop><vdop>3.125</vdop><extensions><gom:speed>0.945</gom:speed></extensions></trkpt>
   <trkpt lat="59.0658228725" lon="30.0156601821"><ele>96.247</ele><time>2026-04-20T13:27:24.802Z</time><hdop>3.0</hdop><vdop>2.5</vdop><extensions><gom:speed>0.8</gom:speed></extensions></trkpt>
   <trkpt lat="59.0657566974" lon="30.0157865812"><ele>96.853</ele><time>2026-04-20T13:27:54.310Z</time><hdop>3.0</hdop><vdop>2.5</vdop><extensions><gom:speed>0.904</gom:speed></extensions></trkpt>
   <trkpt lat="59.0656709924" lon="30.0158453383"><ele>98.484</ele><time>2026-04-20T13:28:05.273Z</time><hdop>3.0</hdop><vdop>2.5</vdop><extensions><gom:speed>1.003</gom:speed></extensions></trkpt>
   <trkpt lat="59.0655983633" lon="30.0157410674"><ele>96.395</ele><time>2026-04-20T13:28:15.802Z</time><hdop>3.0</hdop><vdop>2.5</vdop><extensions><gom:speed>0.824</gom:speed></extensions></trkpt>
   <trkpt lat="59.0655450963" lon="30.0155935459"><ele>94.669</ele><time>2026-04-20T13:29:05.349Z</time><hdop>3.0</hdop><vdop>2.5</vdop><extensions><gom:speed>0.512</gom:speed></extensions></trkpt>
   <trkpt lat="59.0654554937" lon="30.0155644607"><ele>95.01</ele><time>2026-04-20T13:29:17.793Z</time><hdop>3.0</hdop><vdop>2.5</vdop><extensions><gom:speed>0.73</gom:speed></extensions></trkpt>
   <trkpt lat="59.0653625803" lon="30.0155770336"><ele>92.383</ele><time>2026-04-20T13:29:43.149Z</time><hdop>3.0</hdop><vdop>2.5</vdop><extensions><gom:speed>0.93</gom:speed></extensions></trkpt>
   <trkpt lat="59.0652707985" lon="30.0156447594"><ele>94.773</ele><time>2026-04-20T13:29:53.735Z</time><hdop>3.0</hdop><vdop>2.5</vdop><extensions><gom:speed>1.072</gom:speed></extensions></trkpt>
   <trkpt lat="59.0651763763" lon="30.0156327732"><ele>97.85</ele><time>2026-04-20T13:30:12.803Z</time><hdop>3.0</hdop><vdop>2.5</vdop><extensions><gom:speed>0.966</gom:speed></extensions></trkpt>
   <trkpt lat="59.0650912581" lon="30.0155655504"><ele>96.986</ele><time>2026-04-20T13:30:25.587Z</time><hdop>3.0</hdop><vdop>2.5</vdop><extensions><gom:speed>0.871</gom:speed></extensions></trkpt>
   <trkpt lat="59.0650394999" lon="30.0157127366"><ele>95.905</ele><time>2026-04-20T13:30:34.573Z</time><hdop>3.0</hdop><vdop>2.5</vdop><extensions><gom:speed>0.973</gom:speed></extensions></trkpt>
   <trkpt lat="59.0651088601" lon="30.015837124"><ele>92.485</ele><time>2026-04-20T13:30:56.803Z</time><hdop>3.0</hdop><vdop>2.875</vdop><extensions><gom:speed>0.7</gom:speed></extensions></trkpt>
   <trkpt lat="59.0650422659" lon="30.0159592484"><ele>94.777</ele><time>2026-04-20T13:33:30.803Z</time><hdop>3.0</hdop><vdop>2.5</vdop><extensions><gom:speed>0.859</gom:speed></extensions></trkpt>
   <trkpt lat="59.0651119614" lon="30.0160848931"><ele>93.159</ele><time>2026-04-20T13:33:51.803Z</time><hdop>3.0</hdop><vdop>3.937</vdop><extensions><gom:speed>1.712</gom:speed></extensions></trkpt>
   <trkpt lat="59.0650307827" lon="30.0161732384"><ele>91.601</ele><time>2026-04-20T13:35:07.802Z</time><hdop>3.0</hdop><vdop>2.5</vdop><extensions><gom:speed>0.931</gom:speed></extensions></trkpt>
   <trkpt lat="59.0649373664" lon="30.0161629286"><ele>92.159</ele><time>2026-04-20T13:35:21.747Z</time><hdop>3.0</hdop><vdop>2.562</vdop><extensions><gom:speed>0.801</gom:speed></extensions></trkpt>
   <trkpt lat="59.0648427766" lon="30.0161406328"><ele>94.67</ele><time>2026-04-20T13:35:34.368Z</time><hdop>3.0</hdop><vdop>2.5</vdop><extensions><gom:speed>0.872</gom:speed></extensions></trkpt>
   <trkpt lat="59.0647568621" lon="30.0162106216"><ele>96.132</ele><time>2026-04-20T13:35:45.803Z</time><hdop>3.0</hdop><vdop>2.5</vdop><extensions><gom:speed>0.752</gom:speed></extensions></trkpt>
   <trkpt lat="59.0646625657" lon="30.0162121304"><ele>93.354</ele><time>2026-04-20T13:36:29.473Z</time><hdop>3.0</hdop><vdop>2.5</vdop><extensions><gom:speed>0.881</gom:speed></extensions></trkpt>
   <trkpt lat="59.0645726698" lon="30.0162163213"><ele>94.05</ele><time>2026-04-20T13:36:42.517Z</time><hdop>3.0</hdop><vdop>2.5</vdop><extensions><gom:speed>0.667</gom:speed></extensions></trkpt>
   <trkpt lat="59.0644877611" lon="30.0162903335"><ele>92.753</ele><time>2026-04-20T13:36:56.609Z</time><hdop>3.0</hdop><vdop>2.5</vdop><extensions><gom:speed>0.776</gom:speed></extensions></trkpt>
   <trkpt lat="59.0644060794" lon="30.0163653516"><ele>94.703</ele><time>2026-04-20T13:37:09.727Z</time><hdop>3.0</hdop><vdop>2.5</vdop><extensions><gom:speed>0.747</gom:speed></extensions></trkpt>
   <trkpt lat="59.0643125793" lon="30.0163700454"><ele>95.694</ele><time>2026-04-20T13:37:24.797Z</time><hdop>3.0</hdop><vdop>2.5</vdop><extensions><gom:speed>0.823</gom:speed></extensions></trkpt>
   <trkpt lat="59.0642721785" lon="30.0165347498"><ele>92.423</ele><time>2026-04-20T13:37:43.605Z</time><hdop>3.0</hdop><vdop>2.687</vdop><extensions><gom:speed>0.57</gom:speed></extensions></trkpt>
   <trkpt lat="59.0641824922" lon="30.0165135436"><ele>95.136</ele><time>2026-04-20T13:37:54.456Z</time><hdop>3.0</hdop><vdop>3.437</vdop><extensions><gom:speed>0.94</gom:speed></extensions></trkpt>
   <trkpt lat="59.0641081866" lon="30.0166165572"><ele>97.916</ele><time>2026-04-20T13:40:19.273Z</time><hdop>3.187</hdop><vdop>2.75</vdop><extensions><gom:speed>0.561</gom:speed></extensions></trkpt>
   <trkpt lat="59.0640193803" lon="30.0166534376"><ele>94.718</ele><time>2026-04-20T13:41:19.802Z</time><hdop>3.0</hdop><vdop>2.5</vdop><extensions><gom:speed>0.405</gom:speed></extensions></trkpt>
   <trkpt lat="59.0639360642" lon="30.0167396874"><ele>93.692</ele><time>2026-04-20T13:41:42.755Z</time><hdop>3.0</hdop><vdop>2.5</vdop><extensions><gom:speed>0.755</gom:speed></extensions></trkpt>
   <trkpt lat="59.0638455816" lon="30.0167703651"><ele>93.108</ele><time>2026-04-20T13:41:53.803Z</time><hdop>3.0</hdop><vdop>2.5</vdop><extensions><gom:speed>0.868</gom:speed></extensions></trkpt>
   <trkpt lat="59.0637632713" lon="30.0168601353"><ele>93.202</ele><time>2026-04-20T13:42:40.802Z</time><hdop>3.0</hdop><vdop>2.5</vdop><extensions><gom:speed>0.901</gom:speed></extensions></trkpt>
   <trkpt lat="59.0636799971" lon="30.0169336446"><ele>94.571</ele><time>2026-04-20T13:42:49.127Z</time><hdop>3.062</hdop><vdop>2.5</vdop><extensions><gom:speed>0.899</gom:speed></extensions></trkpt>
   <trkpt lat="59.0636136962" lon="30.0168124423"><ele>94.043</ele><time>2026-04-20T13:43:16.802Z</time><hdop>3.0</hdop><vdop>2.5</vdop><extensions><gom:speed>0.858</gom:speed></extensions></trkpt>
   <trkpt lat="59.063535996" lon="30.0169189763"><ele>97.468</ele><time>2026-04-20T13:43:23.556Z</time><hdop>3.0</hdop><vdop>2.5</vdop><extensions><gom:speed>1.063</gom:speed></extensions></trkpt>
   <trkpt lat="59.0634614809" lon="30.0168061559"><ele>95.699</ele><time>2026-04-20T13:43:35.349Z</time><hdop>3.0</hdop><vdop>2.5</vdop><extensions><gom:speed>0.97</gom:speed></extensions></trkpt>
   <trkpt lat="59.0633728841" lon="30.0168543518"><ele>97.055</ele><time>2026-04-20T13:43:45.115Z</time><hdop>3.0</hdop><vdop>2.5</vdop><extensions><gom:speed>0.862</gom:speed></extensions></trkpt>
   <trkpt lat="59.0632905739" lon="30.0169400987"><ele>97.496</ele><time>2026-04-20T13:44:00.554Z</time><hdop>3.0</hdop><vdop>2.5</vdop><extensions><gom:speed>0.788</gom:speed></extensions></trkpt>
   <trkpt lat="59.0632021867" lon="30.0168967642"><ele>97.79</ele><time>2026-04-20T13:44:14.432Z</time><hdop>3.0</hdop><vdop>2.5</vdop><extensions><gom:speed>0.701</gom:speed></extensions></trkpt>
   <trkpt lat="59.0631472852" lon="30.017051578"><ele>98.92</ele><time>2026-04-20T13:44:25.735Z</time><hdop>3.0</hdop><vdop>2.5</vdop><extensions><gom:speed>0.938</gom:speed></extensions></trkpt>
   <trkpt lat="59.0630596943" lon="30.01710715"><ele>97.399</ele><time>2026-04-20T13:44:36.593Z</time><hdop>3.0</hdop><vdop>2.5</vdop><extensions><gom:speed>0.839</gom:speed></extensions></trkpt>
   <trkpt lat="59.0629731931" lon="30.0170511589"><ele>98.141</ele><time>2026-04-20T13:44:48.768Z</time><hdop>3.0</hdop><vdop>2.5</vdop><extensions><gom:speed>0.771</gom:speed></extensions></trkpt>
   <trkpt lat="59.0629693793" lon="30.0172408414"><ele>98.209</ele><time>2026-04-20T13:45:27.690Z</time><hdop>3.0</hdop><vdop>2.5</vdop><extensions><gom:speed>1.157</gom:speed></extensions></trkpt>
   <trkpt lat="59.0630355964" lon="30.0173624628"><ele>97.269</ele><time>2026-04-20T13:45:40.435Z</time><hdop>3.0</hdop><vdop>2.5</vdop><extensions><gom:speed>0.842</gom:speed></extensions></trkpt>
   <trkpt lat="59.0630032841" lon="30.0175306876"><ele>96.808</ele><time>2026-04-20T13:45:50.813Z</time><hdop>3.125</hdop><vdop>2.5</vdop><extensions><gom:speed>0.884</gom:speed></extensions></trkpt>
   <trkpt lat="59.0629638892" lon="30.0176929612"><ele>95.836</ele><time>2026-04-20T13:46:04.412Z</time><hdop>3.0</hdop><vdop>2.5</vdop><extensions><gom:speed>0.92</gom:speed></extensions></trkpt>
   <trkpt lat="59.0629187945" lon="30.0178455957"><ele>96.163</ele><time>2026-04-20T13:46:15.803Z</time><hdop>3.0</hdop><vdop>2.5</vdop><extensions><gom:speed>1.013</gom:speed></extensions></trkpt>
   <trkpt lat="59.0629015697" lon="30.0180239626"><ele>97.282</ele><time>2026-04-20T13:46:26.467Z</time><hdop>3.0</hdop><vdop>2.5</vdop><extensions><gom:speed>1.047</gom:speed></extensions></trkpt>
   <trkpt lat="59.062892182" lon="30.0182064366"><ele>98.628</ele><time>2026-04-20T13:46:38.632Z</time><hdop>3.0</hdop><vdop>2.5</vdop><extensions><gom:speed>0.795</gom:speed></extensions></trkpt>
   <trkpt lat="59.0628163677" lon="30.0183084444"><ele>98.209</ele><time>2026-04-20T13:46:51.113Z</time><hdop>3.0</hdop><vdop>2.5</vdop><extensions><gom:speed>0.855</gom:speed></extensions></trkpt>
   <trkpt lat="59.0628302816" lon="30.0184854702"><ele>96.719</ele><time>2026-04-20T13:47:24.802Z</time><hdop>3.0</hdop><vdop>3.125</vdop><extensions><gom:speed>0.906</gom:speed></extensions></trkpt>
   <trkpt lat="59.0627833849" lon="30.0186440558"><ele>95.686</ele><time>2026-04-20T13:47:33.413Z</time><hdop>3.0</hdop><vdop>2.5</vdop><extensions><gom:speed>0.961</gom:speed></extensions></trkpt>
   <trkpt lat="59.0627535872" lon="30.0188141246"><ele>94.406</ele><time>2026-04-20T13:47:44.549Z</time><hdop>3.0</hdop><vdop>2.5</vdop><extensions><gom:speed>0.876</gom:speed></extensions></trkpt>
   <trkpt lat="59.0627611728" lon="30.0189883844"><ele>93.035</ele><time>2026-04-20T13:47:56.553Z</time><hdop>3.0</hdop><vdop>2.5</vdop><extensions><gom:speed>0.902</gom:speed></extensions></trkpt>
   <trkpt lat="59.0628190918" lon="30.0191268534"><ele>92.187</ele><time>2026-04-20T13:48:20.409Z</time><hdop>3.0</hdop><vdop>2.5</vdop><extensions><gom:speed>0.866</gom:speed></extensions></trkpt>
   <trkpt lat="59.0629165733" lon="30.0190830999"><ele>96.579</ele><time>2026-04-20T13:48:38.802Z</time><hdop>3.0</hdop><vdop>2.5</vdop><extensions><gom:speed>1.436</gom:speed></extensions></trkpt>
   <trkpt lat="59.0629453652" lon="30.019259958"><ele>95.879</ele><time>2026-04-20T13:48:54.802Z</time><hdop>3.75</hdop><vdop>2.5</vdop><extensions><gom:speed>1.047</gom:speed></extensions></trkpt>
   <trkpt lat="59.062878268" lon="30.0193946552"><ele>96.516</ele><time>2026-04-20T13:49:02.802Z</time><hdop>3.75</hdop><vdop>2.5</vdop><extensions><gom:speed>1.398</gom:speed></extensions></trkpt>
   <trkpt lat="59.0629067665" lon="30.019564724"><ele>100.752</ele><time>2026-04-20T13:49:13.802Z</time><hdop>3.75</hdop><vdop>2.625</vdop><extensions><gom:speed>1.304</gom:speed></extensions></trkpt>
   <trkpt lat="59.0629964948" lon="30.0195252453"><ele>96.024</ele><time>2026-04-20T13:49:47.802Z</time><hdop>3.75</hdop><vdop>2.5</vdop><extensions><gom:speed>1.057</gom:speed></extensions></trkpt>
   <trkpt lat="59.0630828703" lon="30.0194519874"><ele>95.017</ele><time>2026-04-20T13:50:02.609Z</time><hdop>3.0</hdop><vdop>2.687</vdop><extensions><gom:speed>0.771</gom:speed></extensions></trkpt>
   <trkpt lat="59.0631715927" lon="30.0193987623"><ele>95.139</ele><time>2026-04-20T13:50:17.296Z</time><hdop>3.0</hdop><vdop>2.5</vdop><extensions><gom:speed>0.899</gom:speed></extensions></trkpt>
   <trkpt lat="59.0632602733" lon="30.0194568489"><ele>96.087</ele><time>2026-04-20T13:50:30.156Z</time><hdop>3.0</hdop><vdop>2.812</vdop><extensions><gom:speed>0.841</gom:speed></extensions></trkpt>
   <trkpt lat="59.0633544859" lon="30.0194411748"><ele>96.249</ele><time>2026-04-20T13:50:44.802Z</time><hdop>3.0</hdop><vdop>2.5</vdop><extensions><gom:speed>0.786</gom:speed></extensions></trkpt>
   <trkpt lat="59.0634473993" lon="30.0194779713"><ele>94.82</ele><time>2026-04-20T13:50:59.414Z</time><hdop>3.0</hdop><vdop>2.75</vdop><extensions><gom:speed>0.821</gom:speed></extensions></trkpt>
   <trkpt lat="59.063538762" lon="30.0195020274"><ele>97.198</ele><time>2026-04-20T13:51:13.455Z</time><hdop>3.0</hdop><vdop>2.5</vdop><extensions><gom:speed>0.869</gom:speed></extensions></trkpt>
   <trkpt lat="59.0636287836" lon="30.0195432663"><ele>96.514</ele><time>2026-04-20T13:51:25.803Z</time><hdop>3.0</hdop><vdop>2.937</vdop><extensions><gom:speed>0.799</gom:speed></extensions></trkpt>
   <trkpt lat="59.0637182605" lon="30.0195175339"><ele>96.263</ele><time>2026-04-20T13:51:38.355Z</time><hdop>3.0</hdop><vdop>2.812</vdop><extensions><gom:speed>0.795</gom:speed></extensions></trkpt>
   <trkpt lat="59.0638066895" lon="30.0194648955"><ele>94.426</ele><time>2026-04-20T13:53:21.573Z</time><hdop>3.062</hdop><vdop>2.875</vdop><extensions><gom:speed>1.046</gom:speed></extensions></trkpt>
   <trkpt lat="59.0638556818" lon="30.0193133507"><ele>92.316</ele><time>2026-04-20T13:53:42.190Z</time><hdop>3.0</hdop><vdop>2.562</vdop><extensions><gom:speed>0.777</gom:speed></extensions></trkpt>
   <trkpt lat="59.0639497686" lon="30.0193288573"><ele>94.198</ele><time>2026-04-20T13:53:54.533Z</time><hdop>3.0</hdop><vdop>2.812</vdop><extensions><gom:speed>0.781</gom:speed></extensions></trkpt>
   <trkpt lat="59.0640397903" lon="30.0193168711"><ele>95.23</ele><time>2026-04-20T13:54:06.233Z</time><hdop>3.0</hdop><vdop>3.312</vdop><extensions><gom:speed>0.897</gom:speed></extensions></trkpt>
   <trkpt lat="59.0640979607" lon="30.0191788212"><ele>87.742</ele><time>2026-04-20T13:54:18.802Z</time><hdop>3.187</hdop><vdop>3.437</vdop><extensions><gom:speed>1.11</gom:speed></extensions></trkpt>
   <trkpt lat="59.0641869765" lon="30.0191383366"><ele>85.453</ele><time>2026-04-20T13:54:28.803Z</time><hdop>3.0</hdop><vdop>4.937</vdop><extensions><gom:speed>0.836</gom:speed></extensions></trkpt>
   <trkpt lat="59.0642845838" lon="30.0191141967"><ele>89.097</ele><time>2026-04-20T13:54:41.195Z</time><hdop>3.0</hdop><vdop>3.437</vdop><extensions><gom:speed>0.922</gom:speed></extensions></trkpt>
   <trkpt lat="59.0643771619" lon="30.019066839"><ele>90.01</ele><time>2026-04-20T13:54:49.788Z</time><hdop>3.0</hdop><vdop>2.875</vdop><extensions><gom:speed>1.218</gom:speed></extensions></trkpt>
   <trkpt lat="59.0644664711" lon="30.0190210738"><ele>81.915</ele><time>2026-04-20T13:55:07.802Z</time><hdop>3.312</hdop><vdop>3.5</vdop><extensions><gom:speed>1.232</gom:speed></extensions></trkpt>
   <trkpt lat="59.0645365857" lon="30.0189067446"><ele>86.94</ele><time>2026-04-20T13:55:20.257Z</time><hdop>3.0</hdop><vdop>4.5</vdop><extensions><gom:speed>0.803</gom:speed></extensions></trkpt>
   <trkpt lat="59.0645977736" lon="30.0187783339"><ele>93.115</ele><time>2026-04-20T13:55:34.446Z</time><hdop>3.0</hdop><vdop>4.062</vdop><extensions><gom:speed>0.838</gom:speed></extensions></trkpt>
   <trkpt lat="59.0646796648" lon="30.0187061657"><ele>86.085</ele><time>2026-04-20T13:55:42.214Z</time><hdop>3.0</hdop><vdop>4.187</vdop><extensions><gom:speed>1.465</gom:speed></extensions></trkpt>
   <trkpt lat="59.0647736678" lon="30.018690743"><ele>88.558</ele><time>2026-04-20T13:55:52.387Z</time><hdop>3.0</hdop><vdop>4.187</vdop><extensions><gom:speed>0.854</gom:speed></extensions></trkpt>
   <trkpt lat="59.064865282" lon="30.0187415373"><ele>86.552</ele><time>2026-04-20T13:56:01.689Z</time><hdop>3.0</hdop><vdop>3.875</vdop><extensions><gom:speed>0.947</gom:speed></extensions></trkpt>
   <trkpt lat="59.0649553875" lon="30.018764839"><ele>91.176</ele><time>2026-04-20T13:56:11.803Z</time><hdop>3.0</hdop><vdop>2.75</vdop><extensions><gom:speed>0.8</gom:speed></extensions></trkpt>
   <trkpt lat="59.0650512764" lon="30.0187775795"><ele>96.17</ele><time>2026-04-20T13:56:21.410Z</time><hdop>3.0</hdop><vdop>3.0</vdop><extensions><gom:speed>1.248</gom:speed></extensions></trkpt>
   <trkpt lat="59.0651449861" lon="30.01873567"><ele>98.779</ele><time>2026-04-20T13:58:25.252Z</time><hdop>3.0</hdop><vdop>3.312</vdop><extensions><gom:speed>0.744</gom:speed></extensions></trkpt>
   <trkpt lat="59.0651945651" lon="30.0188883882"><ele>96.099</ele><time>2026-04-20T13:58:31.803Z</time><hdop>3.0</hdop><vdop>2.937</vdop><extensions><gom:speed>0.986</gom:speed></extensions></trkpt>
   <trkpt lat="59.065286766" lon="30.0188429583"><ele>94.128</ele><time>2026-04-20T13:58:46.670Z</time><hdop>3.0</hdop><vdop>3.125</vdop><extensions><gom:speed>0.878</gom:speed></extensions></trkpt>
   <trkpt lat="59.0653759914" lon="30.0188192375"><ele>85.03</ele><time>2026-04-20T13:59:00.820Z</time><hdop>3.062</hdop><vdop>4.375</vdop><extensions><gom:speed>0.909</gom:speed></extensions></trkpt>
   <trkpt lat="59.0654373888" lon="30.0186575506"><ele>79.783</ele><time>2026-04-20T13:59:10.299Z</time><hdop>3.0</hdop><vdop>4.0</vdop><extensions><gom:speed>1.23</gom:speed></extensions></trkpt>
   <trkpt lat="59.0655059947" lon="30.018535091"><ele>87.319</ele><time>2026-04-20T13:59:16.453Z</time><hdop>3.0</hdop><vdop>4.062</vdop><extensions><gom:speed>1.168</gom:speed></extensions></trkpt>
   <trkpt lat="59.0655988662" lon="30.0185523578"><ele>86.21</ele><time>2026-04-20T13:59:24.753Z</time><hdop>3.0</hdop><vdop>3.75</vdop><extensions><gom:speed>1.149</gom:speed></extensions></trkpt>
   <trkpt lat="59.0656582939" lon="30.018402657"><ele>66.971</ele><time>2026-04-20T13:59:57.016Z</time><hdop>3.062</hdop><vdop>4.187</vdop><extensions><gom:speed>1.035</gom:speed></extensions></trkpt>
   <trkpt lat="59.0657266902" lon="30.0182883278"><ele>55.425</ele><time>2026-04-20T14:00:12.197Z</time><hdop>3.0</hdop><vdop>5.75</vdop><extensions><gom:speed>0.801</gom:speed></extensions></trkpt>
   <trkpt lat="59.0657871656" lon="30.0181430694"><ele>52.012</ele><time>2026-04-20T14:00:26.233Z</time><hdop>3.062</hdop><vdop>4.687</vdop><extensions><gom:speed>0.925</gom:speed></extensions></trkpt>
   <trkpt lat="59.0658435758" lon="30.0179867469"><ele>51.945</ele><time>2026-04-20T14:00:37.274Z</time><hdop>3.437</hdop><vdop>4.687</vdop><extensions><gom:speed>1.012</gom:speed></extensions></trkpt>
   <trkpt lat="59.0659040932" lon="30.0178326875"><ele>60.444</ele><time>2026-04-20T14:00:47.802Z</time><hdop>3.25</hdop><vdop>6.062</vdop><extensions><gom:speed>0.959</gom:speed></extensions></trkpt>
   <trkpt lat="59.065929197" lon="30.017648621"><ele>64.24</ele><time>2026-04-20T14:00:54.474Z</time><hdop>3.062</hdop><vdop>4.5</vdop><extensions><gom:speed>0.906</gom:speed></extensions></trkpt>
   <trkpt lat="59.0660175841" lon="30.0175784644"><ele>68.07</ele><time>2026-04-20T14:01:00.802Z</time><hdop>3.0</hdop><vdop>3.75</vdop><extensions><gom:speed>0.899</gom:speed></extensions></trkpt>
   <trkpt lat="59.0661100784" lon="30.0175447692"><ele>67.734</ele><time>2026-04-20T14:01:11.426Z</time><hdop>3.0</hdop><vdop>4.687</vdop><extensions><gom:speed>0.931</gom:speed></extensions></trkpt>
   <trkpt lat="59.0661917601" lon="30.0176567514"><ele>78.501</ele><time>2026-04-20T14:01:18.688Z</time><hdop>3.0</hdop><vdop>4.25</vdop><extensions><gom:speed>0.983</gom:speed></extensions></trkpt>
   <trkpt lat="59.0662514812" lon="30.01780377"><ele>85.346</ele><time>2026-04-20T14:01:24.411Z</time><hdop>3.0</hdop><vdop>3.312</vdop><extensions><gom:speed>1.04</gom:speed></extensions></trkpt>
   <trkpt lat="59.0663258705" lon="30.0179260619"><ele>89.791</ele><time>2026-04-20T14:01:31.633Z</time><hdop>3.0</hdop><vdop>3.312</vdop><extensions><gom:speed>0.949</gom:speed></extensions></trkpt>
   <trkpt lat="59.0664075941" lon="30.0179990683"><ele>94.042</ele><time>2026-04-20T14:01:58.802Z</time><hdop>3.0</hdop><vdop>3.312</vdop><extensions><gom:speed>0.0</gom:speed></extensions></trkpt>
   <trkpt lat="59.0664941792" lon="30.0180544727"><ele>93.563</ele><time>2026-04-20T14:02:11.803Z</time><hdop>3.0</hdop><vdop>2.812</vdop><extensions><gom:speed>0.809</gom:speed></extensions></trkpt>
   <trkpt lat="59.0665785849" lon="30.01811499"><ele>87.199</ele><time>2026-04-20T14:02:24.802Z</time><hdop>3.0</hdop><vdop>3.75</vdop><extensions><gom:speed>0.92</gom:speed></extensions></trkpt>
   <trkpt lat="59.066666092" lon="30.0181902595"><ele>79.479</ele><time>2026-04-20T14:02:38.802Z</time><hdop>3.062</hdop><vdop>4.937</vdop><extensions><gom:speed>1.388</gom:speed></extensions></trkpt>
   <trkpt lat="59.0667532638" lon="30.0181334302"><ele>73.288</ele><time>2026-04-20T14:02:49.611Z</time><hdop>3.062</hdop><vdop>4.75</vdop><extensions><gom:speed>1.19</gom:speed></extensions></trkpt>
   <trkpt lat="59.0668015855" lon="30.0179771916"><ele>79.72</ele><time>2026-04-20T14:02:59.803Z</time><hdop>3.0</hdop><vdop>3.0</vdop><extensions><gom:speed>0.951</gom:speed></extensions></trkpt>
   <trkpt lat="59.0668321794" lon="30.0178060331"><ele>90.464</ele><time>2026-04-20T14:03:12.814Z</time><hdop>3.0</hdop><vdop>2.562</vdop><extensions><gom:speed>0.942</gom:speed></extensions></trkpt>
   <trkpt lat="59.0667903956" lon="30.0176433404"><ele>92.3</ele><time>2026-04-20T14:03:28.803Z</time><hdop>3.0</hdop><vdop>3.875</vdop><extensions><gom:speed>0.295</gom:speed></extensions></trkpt>
   <trkpt lat="59.0668120628" lon="30.0174727686"><ele>93.12</ele><time>2026-04-20T14:03:46.803Z</time><hdop>3.062</hdop><vdop>3.812</vdop><extensions><gom:speed>0.0</gom:speed></extensions></trkpt>
   <trkpt lat="59.0668437883" lon="30.0172944855"><ele>96.09</ele><time>2026-04-20T14:04:28.802Z</time><hdop>3.75</hdop><vdop>3.687</vdop><extensions><gom:speed>0.879</gom:speed></extensions></trkpt>
   <trkpt lat="59.0669146992" lon="30.0171856884"><ele>97.321</ele><time>2026-04-20T14:04:41.289Z</time><hdop>3.0</hdop><vdop>4.562</vdop><extensions><gom:speed>0.955</gom:speed></extensions></trkpt>
   <trkpt lat="59.0670119712" lon="30.017172445"><ele>98.545</ele><time>2026-04-20T14:04:47.803Z</time><hdop>3.062</hdop><vdop>4.687</vdop><extensions><gom:speed>1.016</gom:speed></extensions></trkpt>
   <trkpt lat="59.0671018671" lon="30.0171667453"><ele>99.016</ele><time>2026-04-20T14:04:55.576Z</time><hdop>3.0</hdop><vdop>3.562</vdop><extensions><gom:speed>0.954</gom:speed></extensions></trkpt>
   <trkpt lat="59.0671929784" lon="30.0171343912"><ele>95.395</ele><time>2026-04-20T14:05:06.802Z</time><hdop>3.0</hdop><vdop>4.437</vdop><extensions><gom:speed>0.973</gom:speed></extensions></trkpt>
   <trkpt lat="59.0672659848" lon="30.0172464572"><ele>97.607</ele><time>2026-04-20T14:05:16.595Z</time><hdop>3.0</hdop><vdop>2.812</vdop><extensions><gom:speed>0.824</gom:speed></extensions></trkpt>
   <trkpt lat="59.0673508935" lon="30.0171869457"><ele>97.95</ele><time>2026-04-20T14:05:30.634Z</time><hdop>3.0</hdop><vdop>2.5</vdop><extensions><gom:speed>0.842</gom:speed></extensions></trkpt>
   <trkpt lat="59.067430773" lon="30.0170921464"><ele>97.701</ele><time>2026-04-20T14:05:43.802Z</time><hdop>3.0</hdop><vdop>2.75</vdop><extensions><gom:speed>0.815</gom:speed></extensions></trkpt>
   <trkpt lat="59.0674985826" lon="30.017209996"><ele>94.86</ele><time>2026-04-20T14:05:53.389Z</time><hdop>3.0</hdop><vdop>2.5</vdop><extensions><gom:speed>0.789</gom:speed></extensions></trkpt>
   <trkpt lat="59.0675864669" lon="30.0172639754"><ele>98.558</ele><time>2026-04-20T14:06:59.802Z</time><hdop>3.0</hdop><vdop>2.5</vdop><extensions><gom:speed>0.611</gom:speed></extensions></trkpt>
   <trkpt lat="59.0676583836" lon="30.0173712638"><ele>98.105</ele><time>2026-04-20T14:07:11.802Z</time><hdop>3.0</hdop><vdop>3.125</vdop><extensions><gom:speed>0.652</gom:speed></extensions></trkpt>
   <trkpt lat="59.0677442981" lon="30.0174365588"><ele>99.898</ele><time>2026-04-20T14:07:35.332Z</time><hdop>3.0</hdop><vdop>3.187</vdop><extensions><gom:speed>0.529</gom:speed></extensions></trkpt>
   <trkpt lat="59.067783274" lon="30.0172592815"><ele>98.455</ele><time>2026-04-20T14:07:51.552Z</time><hdop>3.0</hdop><vdop>2.562</vdop><extensions><gom:speed>0.878</gom:speed></extensions></trkpt>
   <trkpt lat="59.0677979842" lon="30.0170865305"><ele>96.183</ele><time>2026-04-20T14:08:06.802Z</time><hdop>3.0</hdop><vdop>3.687</vdop><extensions><gom:speed>0.835</gom:speed></extensions></trkpt>
   <trkpt lat="59.0678882992" lon="30.0171009474"><ele>100.94</ele><time>2026-04-20T14:10:33.294Z</time><hdop>3.0</hdop><vdop>2.5</vdop><extensions><gom:speed>0.735</gom:speed></extensions></trkpt>
   <trkpt lat="59.0679756805" lon="30.0171606265"><ele>98.486</ele><time>2026-04-20T14:10:44.802Z</time><hdop>3.0</hdop><vdop>3.437</vdop><extensions><gom:speed>0.84</gom:speed></extensions></trkpt>
   <trkpt lat="59.0680670852" lon="30.0171805755"><ele>100.72</ele><time>2026-04-20T14:10:53.310Z</time><hdop>3.0</hdop><vdop>5.062</vdop><extensions><gom:speed>0.935</gom:speed></extensions></trkpt>
   <trkpt lat="59.0681569811" lon="30.0172304478"><ele>97.634</ele><time>2026-04-20T14:11:05.808Z</time><hdop>3.0</hdop><vdop>2.562</vdop><extensions><gom:speed>0.82</gom:speed></extensions></trkpt>
   <trkpt lat="59.0682483858" lon="30.0171882868"><ele>98.58</ele><time>2026-04-20T14:11:17.803Z</time><hdop>3.0</hdop><vdop>2.5</vdop><extensions><gom:speed>0.903</gom:speed></extensions></trkpt>
   <trkpt lat="59.0683403771" lon="30.0172128458"><ele>99.309</ele><time>2026-04-20T14:11:29.803Z</time><hdop>3.0</hdop><vdop>3.375</vdop><extensions><gom:speed>0.796</gom:speed></extensions></trkpt>
   <trkpt lat="59.0684342964" lon="30.0171699305"><ele>98.921</ele><time>2026-04-20T14:11:42.803Z</time><hdop>3.0</hdop><vdop>2.875</vdop><extensions><gom:speed>0.846</gom:speed></extensions></trkpt>
   <trkpt lat="59.0685188698" lon="30.0172296934"><ele>95.836</ele><time>2026-04-20T14:11:56.627Z</time><hdop>3.0</hdop><vdop>3.875</vdop><extensions><gom:speed>0.819</gom:speed></extensions></trkpt>
   <trkpt lat="59.0686013896" lon="30.0171449524"><ele>97.779</ele><time>2026-04-20T14:12:10.802Z</time><hdop>3.0</hdop><vdop>2.937</vdop><extensions><gom:speed>0.812</gom:speed></extensions></trkpt>
   <trkpt lat="59.0686923752" lon="30.0171385821"><ele>97.919</ele><time>2026-04-20T14:12:21.328Z</time><hdop>3.0</hdop><vdop>4.437</vdop><extensions><gom:speed>0.92</gom:speed></extensions></trkpt>
   <trkpt lat="59.0687860849" lon="30.0171352294"><ele>97.077</ele><time>2026-04-20T14:12:33.094Z</time><hdop>3.0</hdop><vdop>3.5</vdop><extensions><gom:speed>0.92</gom:speed></extensions></trkpt>
   <trkpt lat="59.0688789982" lon="30.0171107542"><ele>97.96</ele><time>2026-04-20T14:12:46.314Z</time><hdop>3.0</hdop><vdop>3.75</vdop><extensions><gom:speed>0.847</gom:speed></extensions></trkpt>
   <trkpt lat="59.0689617695" lon="30.0170241692"><ele>100.231</ele><time>2026-04-20T14:12:57.756Z</time><hdop>3.0</hdop><vdop>4.0</vdop><extensions><gom:speed>0.801</gom:speed></extensions></trkpt>
   <trkpt lat="59.0690460915" lon="30.0169572816"><ele>98.013</ele><time>2026-04-20T14:13:09.802Z</time><hdop>3.0</hdop><vdop>2.812</vdop><extensions><gom:speed>0.875</gom:speed></extensions></trkpt>
   <trkpt lat="59.0691260968" lon="30.01687187"><ele>99.653</ele><time>2026-04-20T14:13:19.714Z</time><hdop>3.0</hdop><vdop>3.062</vdop><extensions><gom:speed>0.911</gom:speed></extensions></trkpt>
   <trkpt lat="59.0692041742" lon="30.0167709519"><ele>100.41</ele><time>2026-04-20T14:13:30.673Z</time><hdop>3.0</hdop><vdop>3.437</vdop><extensions><gom:speed>0.852</gom:speed></extensions></trkpt>
   <trkpt lat="59.0692790665" lon="30.0166634959"><ele>96.702</ele><time>2026-04-20T14:13:42.495Z</time><hdop>3.0</hdop><vdop>3.312</vdop><extensions><gom:speed>0.922</gom:speed></extensions></trkpt>
   <trkpt lat="59.0693406735" lon="30.0165345822"><ele>97.794</ele><time>2026-04-20T14:13:53.288Z</time><hdop>3.0</hdop><vdop>4.25</vdop><extensions><gom:speed>0.963</gom:speed></extensions></trkpt>
   <trkpt lat="59.0694347603" lon="30.0165166449"><ele>98.318</ele><time>2026-04-20T14:14:02.367Z</time><hdop>3.0</hdop><vdop>4.687</vdop><extensions><gom:speed>1.046</gom:speed></extensions></trkpt>
   <trkpt lat="59.0695152685" lon="30.0164289702"><ele>98.859</ele><time>2026-04-20T14:14:16.693Z</time><hdop>3.0</hdop><vdop>4.937</vdop><extensions><gom:speed>0.907</gom:speed></extensions></trkpt>
   <trkpt lat="59.0696054997" lon="30.0163942691"><ele>101.566</ele><time>2026-04-20T14:14:30.373Z</time><hdop>3.0</hdop><vdop>3.0</vdop><extensions><gom:speed>0.93</gom:speed></extensions></trkpt>
   <trkpt lat="59.0696964853" lon="30.0163997174"><ele>100.854</ele><time>2026-04-20T14:14:39.613Z</time><hdop>3.0</hdop><vdop>3.75</vdop><extensions><gom:speed>0.955</gom:speed></extensions></trkpt>
   <trkpt lat="59.0697813939" lon="30.0164751545"><ele>102.224</ele><time>2026-04-20T14:14:47.316Z</time><hdop>3.0</hdop><vdop>3.75</vdop><extensions><gom:speed>0.923</gom:speed></extensions></trkpt>
   <trkpt lat="59.0698710803" lon="30.0165338278"><ele>103.831</ele><time>2026-04-20T14:14:56.803Z</time><hdop>3.0</hdop><vdop>3.625</vdop><extensions><gom:speed>0.954</gom:speed></extensions></trkpt>
   <trkpt lat="59.0699611858" lon="30.0164942652"><ele>104.093</ele><time>2026-04-20T14:15:08.803Z</time><hdop>3.0</hdop><vdop>4.062</vdop><extensions><gom:speed>0.816</gom:speed></extensions></trkpt>
   <trkpt lat="59.0700526742" lon="30.0164905772"><ele>103.931</ele><time>2026-04-20T14:17:12.652Z</time><hdop>3.187</hdop><vdop>2.625</vdop><extensions><gom:speed>0.924</gom:speed></extensions></trkpt>
   <trkpt lat="59.0701329729" lon="30.016576827"><ele>100.206</ele><time>2026-04-20T14:17:22.629Z</time><hdop>3.0</hdop><vdop>6.062</vdop><extensions><gom:speed>1.007</gom:speed></extensions></trkpt>
   <trkpt lat="59.0702184683" lon="30.0166516774"><ele>95.137</ele><time>2026-04-20T14:17:35.271Z</time><hdop>3.0</hdop><vdop>3.937</vdop><extensions><gom:speed>0.906</gom:speed></extensions></trkpt>
   <trkpt lat="59.0703058915" lon="30.0165910762"><ele>97.689</ele><time>2026-04-20T14:17:45.207Z</time><hdop>3.0</hdop><vdop>4.062</vdop><extensions><gom:speed>0.902</gom:speed></extensions></trkpt>
   <trkpt lat="59.0703900878" lon="30.0166567903"><ele>104.756</ele><time>2026-04-20T14:17:57.668Z</time><hdop>3.0</hdop><vdop>3.75</vdop><extensions><gom:speed>0.767</gom:speed></extensions></trkpt>
   <trkpt lat="59.0704739906" lon="30.0165871367"><ele>104.054</ele><time>2026-04-20T14:18:08.490Z</time><hdop>3.0</hdop><vdop>3.5</vdop><extensions><gom:speed>0.868</gom:speed></extensions></trkpt>
   <trkpt lat="59.070570592" lon="30.0165879749"><ele>101.42</ele><time>2026-04-20T14:18:19.694Z</time><hdop>3.0</hdop><vdop>2.625</vdop><extensions><gom:speed>0.843</gom:speed></extensions></trkpt>
   <trkpt lat="59.0706493819" lon="30.016687971"><ele>104.196</ele><time>2026-04-20T14:19:22.816Z</time><hdop>3.062</hdop><vdop>3.5</vdop><extensions><gom:speed>0.52</gom:speed></extensions></trkpt>
   <trkpt lat="59.0707423791" lon="30.0166403618"><ele>104.052</ele><time>2026-04-20T14:19:48.802Z</time><hdop>3.0</hdop><vdop>3.187</vdop><extensions><gom:speed>0.764</gom:speed></extensions></trkpt>
   <trkpt lat="59.0707916647" lon="30.0164938462"><ele>98.146</ele><time>2026-04-20T14:19:59.768Z</time><hdop>3.0</hdop><vdop>3.562</vdop><extensions><gom:speed>0.827</gom:speed></extensions></trkpt>
   <trkpt lat="59.0708875956" lon="30.0164752383"><ele>101.555</ele><time>2026-04-20T14:20:06.802Z</time><hdop>3.062</hdop><vdop>5.25</vdop><extensions><gom:speed>1.064</gom:speed></extensions></trkpt>
   <trkpt lat="59.0709751865" lon="30.0164084346"><ele>105.403</ele><time>2026-04-20T14:20:20.528Z</time><hdop>3.0</hdop><vdop>3.187</vdop><extensions><gom:speed>0.822</gom:speed></extensions></trkpt>
   <trkpt lat="59.0710593827" lon="30.0163448997"><ele>105.227</ele><time>2026-04-20T14:20:32.803Z</time><hdop>3.0</hdop><vdop>2.75</vdop><extensions><gom:speed>0.725</gom:speed></extensions></trkpt>
   <trkpt lat="59.0711199839" lon="30.0164830335"><ele>106.494</ele><time>2026-04-20T14:20:43.802Z</time><hdop>3.0</hdop><vdop>4.125</vdop><extensions><gom:speed>1.126</gom:speed></extensions></trkpt>
   <trkpt lat="59.0712044735" lon="30.0164134637"><ele>106.667</ele><time>2026-04-20T14:20:52.674Z</time><hdop>3.0</hdop><vdop>3.875</vdop><extensions><gom:speed>0.678</gom:speed></extensions></trkpt>
   <trkpt lat="59.0712933635" lon="30.0163626694"><ele>107.7</ele><time>2026-04-20T14:21:10.294Z</time><hdop>3.0</hdop><vdop>3.25</vdop><extensions><gom:speed>0.909</gom:speed></extensions></trkpt>
   <trkpt lat="59.0713807868" lon="30.0163158983"><ele>105.065</ele><time>2026-04-20T14:21:24.803Z</time><hdop>3.0</hdop><vdop>4.312</vdop><extensions><gom:speed>0.859</gom:speed></extensions></trkpt>
   <trkpt lat="59.0714736583" lon="30.0163205922"><ele>101.847</ele><time>2026-04-20T14:21:39.802Z</time><hdop>3.0</hdop><vdop>4.062</vdop><extensions><gom:speed>0.884</gom:speed></extensions></trkpt>
   <trkpt lat="59.0715417612" lon="30.0162061792"><ele>99.061</ele><time>2026-04-20T14:21:55.393Z</time><hdop>3.0</hdop><vdop>2.687</vdop><extensions><gom:speed>0.737</gom:speed></extensions></trkpt>
   <trkpt lat="59.0716301903" lon="30.0162371923"><ele>97.081</ele><time>2026-04-20T14:22:06.473Z</time><hdop>3.0</hdop><vdop>2.5</vdop><extensions><gom:speed>0.793</gom:speed></extensions></trkpt>
   <trkpt lat="59.0716772966" lon="30.0164117873"><ele>96.592</ele><time>2026-04-20T14:24:29.429Z</time><hdop>3.375</hdop><vdop>2.5</vdop><extensions><gom:speed>0.838</gom:speed></extensions></trkpt>
   <trkpt lat="59.0717078906" lon="30.0165802636"><ele>96.583</ele><time>2026-04-20T14:24:37.375Z</time><hdop>3.0</hdop><vdop>2.5</vdop><extensions><gom:speed>0.896</gom:speed></extensions></trkpt>
   <trkpt lat="59.0717245706" lon="30.0167609774"><ele>97.359</ele><time>2026-04-20T14:24:46.570Z</time><hdop>3.0</hdop><vdop>2.5</vdop><extensions><gom:speed>0.906</gom:speed></extensions></trkpt>
   <trkpt lat="59.0717509736" lon="30.0169381708"><ele>97.975</ele><time>2026-04-20T14:24:56.803Z</time><hdop>3.0</hdop><vdop>2.5</vdop><extensions><gom:speed>0.958</gom:speed></extensions></trkpt>
   <trkpt lat="59.0717718864" lon="30.0171157834"><ele>97.796</ele><time>2026-04-20T14:25:07.802Z</time><hdop>3.0</hdop><vdop>2.5</vdop><extensions><gom:speed>0.92</gom:speed></extensions></trkpt>
   <trkpt lat="59.0718189927" lon="30.017268334"><ele>99.949</ele><time>2026-04-20T14:25:17.803Z</time><hdop>3.0</hdop><vdop>2.5</vdop><extensions><gom:speed>0.982</gom:speed></extensions></trkpt>
   <trkpt lat="59.0718054978" lon="30.0174451922"><ele>99.042</ele><time>2026-04-20T14:25:26.254Z</time><hdop>3.0</hdop><vdop>2.5</vdop><extensions><gom:speed>1.016</gom:speed></extensions></trkpt>
   <trkpt lat="59.071815598" lon="30.0176320248"><ele>96.98</ele><time>2026-04-20T14:25:41.017Z</time><hdop>3.0</hdop><vdop>2.5</vdop><extensions><gom:speed>0.968</gom:speed></extensions></trkpt>
   <trkpt lat="59.0718546996" lon="30.0177955557"><ele>95.875</ele><time>2026-04-20T14:25:52.790Z</time><hdop>3.0</hdop><vdop>2.5</vdop><extensions><gom:speed>0.902</gom:speed></extensions></trkpt>
   <trkpt lat="59.0719455594" lon="30.0178717472"><ele>100.25</ele><time>2026-04-20T14:28:13.372Z</time><hdop>3.375</hdop><vdop>2.625</vdop><extensions><gom:speed>1.071</gom:speed></extensions></trkpt>
   <trkpt lat="59.0719850801" lon="30.0180303328"><ele>98.688</ele><time>2026-04-20T14:29:18.802Z</time><hdop>3.0</hdop><vdop>4.375</vdop><extensions><gom:speed>0.103</gom:speed></extensions></trkpt>
   <trkpt lat="59.0719735969" lon="30.0182056822"><ele>98.07</ele><time>2026-04-20T14:30:02.802Z</time><hdop>3.0</hdop><vdop>3.437</vdop><extensions><gom:speed>0.074</gom:speed></extensions></trkpt>
   <trkpt lat="59.0718916638" lon="30.018277599"><ele>98.05</ele><time>2026-04-20T14:30:46.802Z</time><hdop>3.0</hdop><vdop>3.125</vdop><extensions><gom:speed>0.113</gom:speed></extensions></trkpt>
   <trkpt lat="59.0718015583" lon="30.0182581529"><ele>88.327</ele><time>2026-04-20T14:31:30.657Z</time><hdop>3.375</hdop><vdop>9.562</vdop><extensions><gom:speed>0.754</gom:speed></extensions></trkpt>
   <trkpt lat="59.0717223913" lon="30.0183686264"><ele>97.347</ele><time>2026-04-20T14:33:14.803Z</time><hdop>3.0</hdop><vdop>2.875</vdop><extensions><gom:speed>1.093</gom:speed></extensions></trkpt>
   <trkpt lat="59.0716480857" lon="30.0182632659"><ele>84.324</ele><time>2026-04-20T14:33:31.706Z</time><hdop>3.0</hdop><vdop>3.187</vdop><extensions><gom:speed>0.693</gom:speed></extensions></trkpt>
   <trkpt lat="59.0715635961" lon="30.0181887508"><ele>84.303</ele><time>2026-04-20T14:33:53.697Z</time><hdop>3.0</hdop><vdop>4.187</vdop><extensions><gom:speed>0.976</gom:speed></extensions></trkpt>
   <trkpt lat="59.071471479" lon="30.0181711488"><ele>85.51</ele><time>2026-04-20T14:34:04.803Z</time><hdop>3.0</hdop><vdop>4.062</vdop><extensions><gom:speed>0.735</gom:speed></extensions></trkpt>
   <trkpt lat="59.0713933597" lon="30.018073332"><ele>83.556</ele><time>2026-04-20T14:34:14.802Z</time><hdop>3.0</hdop><vdop>3.187</vdop><extensions><gom:speed>0.843</gom:speed></extensions></trkpt>
   <trkpt lat="59.0712897593" lon="30.0180768524"><ele>87.274</ele><time>2026-04-20T14:34:27.517Z</time><hdop>3.0</hdop><vdop>2.687</vdop><extensions><gom:speed>0.997</gom:speed></extensions></trkpt>
   <trkpt lat="59.0711990671" lon="30.0180856534"><ele>84.725</ele><time>2026-04-20T14:34:36.435Z</time><hdop>3.0</hdop><vdop>2.562</vdop><extensions><gom:speed>1.011</gom:speed></extensions></trkpt>
   <trkpt lat="59.0711096741" lon="30.0181121402"><ele>59.619</ele><time>2026-04-20T14:35:37.470Z</time><hdop>3.0</hdop><vdop>2.875</vdop><extensions><gom:speed>0.967</gom:speed></extensions></trkpt>
   <trkpt lat="59.0711071596" lon="30.0183194247"><ele>69.848</ele><time>2026-04-20T14:35:54.803Z</time><hdop>3.0</hdop><vdop>3.187</vdop><extensions><gom:speed>1.102</gom:speed></extensions></trkpt>
   <trkpt lat="59.0711300841" lon="30.0184983783"><ele>72.654</ele><time>2026-04-20T14:36:06.802Z</time><hdop>3.0</hdop><vdop>4.687</vdop><extensions><gom:speed>1.014</gom:speed></extensions></trkpt>
   <trkpt lat="59.0710681837" lon="30.0186423794"><ele>73.242</ele><time>2026-04-20T14:36:13.453Z</time><hdop>3.0</hdop><vdop>3.062</vdop><extensions><gom:speed>1.084</gom:speed></extensions></trkpt>
   <trkpt lat="59.0710328959" lon="30.0188150466"><ele>69.704</ele><time>2026-04-20T14:36:24.803Z</time><hdop>3.0</hdop><vdop>2.812</vdop><extensions><gom:speed>1.166</gom:speed></extensions></trkpt>
   <trkpt lat="59.0709552795" lon="30.0189090915"><ele>78.146</ele><time>2026-04-20T14:36:36.802Z</time><hdop>3.0</hdop><vdop>2.625</vdop><extensions><gom:speed>1.234</gom:speed></extensions></trkpt>
   <trkpt lat="59.0708642939" lon="30.0189350754"><ele>81.879</ele><time>2026-04-20T14:36:49.295Z</time><hdop>3.0</hdop><vdop>2.5</vdop><extensions><gom:speed>0.686</gom:speed></extensions></trkpt>
   <trkpt lat="59.0707809778" lon="30.0188678526"><ele>81.473</ele><time>2026-04-20T14:37:00.775Z</time><hdop>3.0</hdop><vdop>3.25</vdop><extensions><gom:speed>0.836</gom:speed></extensions></trkpt>
   <trkpt lat="59.0707803911" lon="30.018689318"><ele>84.259</ele><time>2026-04-20T14:37:17.996Z</time><hdop>3.0</hdop><vdop>5.812</vdop><extensions><gom:speed>0.546</gom:speed></extensions></trkpt>
   <trkpt lat="59.0706887769" lon="30.0186936766"><ele>80.635</ele><time>2026-04-20T14:37:30.271Z</time><hdop>3.0</hdop><vdop>2.562</vdop><extensions><gom:speed>0.877</gom:speed></extensions></trkpt>
   <trkpt lat="59.070598378" lon="30.0186935928"><ele>78.594</ele><time>2026-04-20T14:37:43.694Z</time><hdop>3.0</hdop><vdop>3.187</vdop><extensions><gom:speed>0.9</gom:speed></extensions></trkpt>
   <trkpt lat="59.0705083983" lon="30.0186887313"><ele>77.581</ele><time>2026-04-20T14:37:52.803Z</time><hdop>3.0</hdop><vdop>2.875</vdop><extensions><gom:speed>1.24</gom:speed></extensions></trkpt>
   <trkpt lat="59.0704205979" lon="30.0186422956"><ele>73.426</ele><time>2026-04-20T14:38:04.803Z</time><hdop>3.0</hdop><vdop>3.25</vdop><extensions><gom:speed>0.94</gom:speed></extensions></trkpt>
   <trkpt lat="59.0703217752" lon="30.0186341651"><ele>77.617</ele><time>2026-04-20T14:38:17.874Z</time><hdop>3.0</hdop><vdop>3.625</vdop><extensions><gom:speed>0.88</gom:speed></extensions></trkpt>
   <trkpt lat="59.0702201866" lon="30.0186442234"><ele>83.835</ele><time>2026-04-20T14:38:28.229Z</time><hdop>3.0</hdop><vdop>3.125</vdop><extensions><gom:speed>1.222</gom:speed></extensions></trkpt>
   <trkpt lat="59.0701411871" lon="30.0185606558"><ele>78.998</ele><time>2026-04-20T14:38:40.128Z</time><hdop>3.0</hdop><vdop>2.875</vdop><extensions><gom:speed>0.761</gom:speed></extensions></trkpt>
   <trkpt lat="59.0699805899" lon="30.0187995401"><ele>95.183</ele><time>2026-04-20T14:38:48.378Z</time><hdop>3.375</hdop><vdop>2.5</vdop><extensions><gom:speed>0.887</gom:speed></extensions></trkpt>
   <trkpt lat="59.0699239701" lon="30.0189509172"><ele>95.964</ele><time>2026-04-20T14:38:52.711Z</time><hdop>3.875</hdop><vdop>2.625</vdop><extensions><gom:speed>0.827</gom:speed></extensions></trkpt>
   <trkpt lat="59.069833697" lon="30.0189929944"><ele>94.28</ele><time>2026-04-20T14:39:05.553Z</time><hdop>3.0</hdop><vdop>2.5</vdop><extensions><gom:speed>0.838</gom:speed></extensions></trkpt>
   <trkpt lat="59.0697428791" lon="30.0189559464"><ele>89.688</ele><time>2026-04-20T14:39:18.430Z</time><hdop>3.0</hdop><vdop>2.5</vdop><extensions><gom:speed>0.866</gom:speed></extensions></trkpt>
   <trkpt lat="59.0696585991" lon="30.0190269411"><ele>92.41</ele><time>2026-04-20T14:39:29.728Z</time><hdop>3.0</hdop><vdop>2.625</vdop><extensions><gom:speed>0.823</gom:speed></extensions></trkpt>
   <trkpt lat="59.069603069" lon="30.0188738876"><ele>93.984</ele><time>2026-04-20T14:39:39.802Z</time><hdop>3.0</hdop><vdop>3.062</vdop><extensions><gom:speed>0.915</gom:speed></extensions></trkpt>
   <trkpt lat="59.0695181603" lon="30.0189451337"><ele>97.045</ele><time>2026-04-20T14:39:51.196Z</time><hdop>3.0</hdop><vdop>4.312</vdop><extensions><gom:speed>1.043</gom:speed></extensions></trkpt>
   <trkpt lat="59.0694219779" lon="30.0189916533"><ele>94.842</ele><time>2026-04-20T14:40:00.802Z</time><hdop>3.0</hdop><vdop>2.687</vdop><extensions><gom:speed>0.929</gom:speed></extensions></trkpt>
   <trkpt lat="59.0693307828" lon="30.0189581257"><ele>92.712</ele><time>2026-04-20T14:40:13.334Z</time><hdop>3.0</hdop><vdop>2.5</vdop><extensions><gom:speed>0.841</gom:speed></extensions></trkpt>
   <trkpt lat="59.0692512805" lon="30.0190577865"><ele>94.466</ele><time>2026-04-20T14:40:24.803Z</time><hdop>3.0</hdop><vdop>2.5</vdop><extensions><gom:speed>0.922</gom:speed></extensions></trkpt>
   <trkpt lat="59.0691613846" lon="30.0190597982"><ele>96.746</ele><time>2026-04-20T14:40:39.803Z</time><hdop>3.0</hdop><vdop>2.625</vdop><extensions><gom:speed>0.638</gom:speed></extensions></trkpt>
   <trkpt lat="59.0690667948" lon="30.0190525897"><ele>93.195</ele><time>2026-04-20T14:42:29.635Z</time><hdop>3.0</hdop><vdop>2.687</vdop><extensions><gom:speed>0.774</gom:speed></extensions></trkpt>
   <trkpt lat="59.0689778628" lon="30.0191003666"><ele>91.577</ele><time>2026-04-20T14:42:40.802Z</time><hdop>3.0</hdop><vdop>2.5</vdop><extensions><gom:speed>0.867</gom:speed></extensions></trkpt>
   <trkpt lat="59.0688819738" lon="30.0191297871"><ele>93.307</ele><time>2026-04-20T14:42:50.777Z</time><hdop>3.0</hdop><vdop>2.5</vdop><extensions><gom:speed>0.787</gom:speed></extensions></trkpt>
   <trkpt lat="59.0687885994" lon="30.0191567768"><ele>95.386</ele><time>2026-04-20T14:43:00.569Z</time><hdop>3.0</hdop><vdop>2.5</vdop><extensions><gom:speed>0.923</gom:speed></extensions></trkpt>
   <trkpt lat="59.0687005894" lon="30.0192069844"><ele>95.864</ele><time>2026-04-20T14:43:13.802Z</time><hdop>3.0</hdop><vdop>2.5</vdop><extensions><gom:speed>0.836</gom:speed></extensions></trkpt>
   <trkpt lat="59.0686102744" lon="30.0191842694"><ele>94.596</ele><time>2026-04-20T14:43:26.803Z</time><hdop>3.0</hdop><vdop>2.5</vdop><extensions><gom:speed>0.857</gom:speed></extensions></trkpt>
   <trkpt lat="59.068537771" lon="30.0192880374"><ele>93.832</ele><time>2026-04-20T14:43:39.802Z</time><hdop>3.0</hdop><vdop>2.5</vdop><extensions><gom:speed>0.795</gom:speed></extensions></trkpt>
   <trkpt lat="59.0684454862" lon="30.0192909711"><ele>94.055</ele><time>2026-04-20T14:43:51.512Z</time><hdop>3.0</hdop><vdop>2.5</vdop><extensions><gom:speed>0.832</gom:speed></extensions></trkpt>
   <trkpt lat="59.0683575601" lon="30.0192172941"><ele>92.7</ele><time>2026-04-20T14:44:05.531Z</time><hdop>3.0</hdop><vdop>2.5</vdop><extensions><gom:speed>0.76</gom:speed></extensions></trkpt>
   <trkpt lat="59.068266784" lon="30.0192420207"><ele>93.792</ele><time>2026-04-20T14:44:22.569Z</time><hdop>3.0</hdop><vdop>2.5</vdop><extensions><gom:speed>0.718</gom:speed></extensions></trkpt>
   <trkpt lat="59.0681739964" lon="30.0192270171"><ele>95.489</ele><time>2026-04-20T14:44:34.572Z</time><hdop>3.0</hdop><vdop>2.5</vdop><extensions><gom:speed>0.789</gom:speed></extensions></trkpt>
   <trkpt lat="59.0680814602" lon="30.0191678409"><ele>94.889</ele><time>2026-04-20T14:44:45.803Z</time><hdop>3.0</hdop><vdop>3.0</vdop><extensions><gom:speed>0.89</gom:speed></extensions></trkpt>
   <trkpt lat="59.0679876667" lon="30.0192155339"><ele>95.827</ele><time>2026-04-20T14:44:58.329Z</time><hdop>3.0</hdop><vdop>2.812</vdop><extensions><gom:speed>0.815</gom:speed></extensions></trkpt>
   <trkpt lat="59.0678949628" lon="30.019232633"><ele>94.935</ele><time>2026-04-20T14:45:10.474Z</time><hdop>3.0</hdop><vdop>2.5</vdop><extensions><gom:speed>0.807</gom:speed></extensions></trkpt>
   <trkpt lat="59.0678019656" lon="30.0192534201"><ele>93.631</ele><time>2026-04-20T14:45:24.752Z</time><hdop>3.0</hdop><vdop>2.5</vdop><extensions><gom:speed>0.869</gom:speed></extensions></trkpt>
   <trkpt lat="59.0677175598" lon="30.0193466269"><ele>94.783</ele><time>2026-04-20T14:45:36.802Z</time><hdop>3.0</hdop><vdop>2.5</vdop><extensions><gom:speed>0.696</gom:speed></extensions></trkpt>
   <trkpt lat="59.0676275801" lon="30.0193673302"><ele>96.163</ele><time>2026-04-20T14:45:49.415Z</time><hdop>3.0</hdop><vdop>2.5</vdop><extensions><gom:speed>0.884</gom:speed></extensions></trkpt>
   <trkpt lat="59.0675410789" lon="30.0194242433"><ele>95.8</ele><time>2026-04-20T14:45:59.294Z</time><hdop>3.0</hdop><vdop>3.25</vdop><extensions><gom:speed>0.953</gom:speed></extensions></trkpt>
   <trkpt lat="59.0674547872" lon="30.0194744509"><ele>95.525</ele><time>2026-04-20T14:46:09.272Z</time><hdop>3.0</hdop><vdop>3.0</vdop><extensions><gom:speed>0.784</gom:speed></extensions></trkpt>
   <trkpt lat="59.0673623767" lon="30.0194628839"><ele>100.922</ele><time>2026-04-20T14:47:57.695Z</time><hdop>3.0</hdop><vdop>3.125</vdop><extensions><gom:speed>0.912</gom:speed></extensions></trkpt>
   <trkpt lat="59.0672697986" lon="30.0194582738"><ele>98.942</ele><time>2026-04-20T14:48:10.803Z</time><hdop>3.0</hdop><vdop>2.5</vdop><extensions><gom:speed>1.037</gom:speed></extensions></trkpt>
   <trkpt lat="59.067175586" lon="30.0194560946"><ele>97.181</ele><time>2026-04-20T14:48:21.600Z</time><hdop>3.0</hdop><vdop>2.5</vdop><extensions><gom:speed>1.037</gom:speed></extensions></trkpt>
   <trkpt lat="59.0670944911" lon="30.0195418414"><ele>95.673</ele><time>2026-04-20T14:48:31.447Z</time><hdop>3.0</hdop><vdop>2.5</vdop><extensions><gom:speed>0.922</gom:speed></extensions></trkpt>
   <trkpt lat="59.0670345605" lon="30.0196834956"><ele>94.096</ele><time>2026-04-20T14:48:41.195Z</time><hdop>3.0</hdop><vdop>2.5</vdop><extensions><gom:speed>1.115</gom:speed></extensions></trkpt>
   <trkpt lat="59.0669496937" lon="30.0197492935"><ele>94.17</ele><time>2026-04-20T14:48:51.182Z</time><hdop>3.0</hdop><vdop>2.875</vdop><extensions><gom:speed>0.906</gom:speed></extensions></trkpt>
   <trkpt lat="59.0668651622" lon="30.0198124931"><ele>95.319</ele><time>2026-04-20T14:49:01.409Z</time><hdop>3.0</hdop><vdop>2.5</vdop><extensions><gom:speed>0.85</gom:speed></extensions></trkpt>
   <trkpt lat="59.0667867914" lon="30.0199060351"><ele>94.117</ele><time>2026-04-20T14:49:12.469Z</time><hdop>3.0</hdop><vdop>2.562</vdop><extensions><gom:speed>0.937</gom:speed></extensions></trkpt>
   <trkpt lat="59.066701296" lon="30.0199965597"><ele>96.909</ele><time>2026-04-20T14:49:22.634Z</time><hdop>3.0</hdop><vdop>2.562</vdop><extensions><gom:speed>0.933</gom:speed></extensions></trkpt>
   <trkpt lat="59.0666221708" lon="30.0200857431"><ele>95.534</ele><time>2026-04-20T14:49:36.673Z</time><hdop>3.0</hdop><vdop>2.875</vdop><extensions><gom:speed>0.594</gom:speed></extensions></trkpt>
   <trkpt lat="59.0665344961" lon="30.0200409838"><ele>94.211</ele><time>2026-04-20T14:49:49.608Z</time><hdop>3.0</hdop><vdop>2.875</vdop><extensions><gom:speed>0.955</gom:speed></extensions></trkpt>
   <trkpt lat="59.0664457737" lon="30.0200864975"><ele>94.275</ele><time>2026-04-20T14:49:58.736Z</time><hdop>3.0</hdop><vdop>2.5</vdop><extensions><gom:speed>1.02</gom:speed></extensions></trkpt>
   <trkpt lat="59.0663611584" lon="30.0201597553"><ele>96.063</ele><time>2026-04-20T14:50:07.803Z</time><hdop>3.0</hdop><vdop>2.5</vdop><extensions><gom:speed>1.07</gom:speed></extensions></trkpt>
   <trkpt lat="59.0662727712" lon="30.02019278"><ele>94.71</ele><time>2026-04-20T14:50:17.986Z</time><hdop>3.0</hdop><vdop>2.75</vdop><extensions><gom:speed>0.934</gom:speed></extensions></trkpt>
   <trkpt lat="59.0661864795" lon="30.020269223"><ele>93.935</ele><time>2026-04-20T14:50:31.249Z</time><hdop>3.0</hdop><vdop>2.5</vdop><extensions><gom:speed>0.909</gom:speed></extensions></trkpt>
   <trkpt lat="59.066094991" lon="30.0202179257"><ele>94.966</ele><time>2026-04-20T14:50:41.727Z</time><hdop>3.0</hdop><vdop>2.5</vdop><extensions><gom:speed>0.931</gom:speed></extensions></trkpt>
   <trkpt lat="59.0660019938" lon="30.0202581589"><ele>95.098</ele><time>2026-04-20T14:50:51.803Z</time><hdop>3.0</hdop><vdop>2.5</vdop><extensions><gom:speed>0.973</gom:speed></extensions></trkpt>
   <trkpt lat="59.065940764" lon="30.0203984719"><ele>94.372</ele><time>2026-04-20T14:51:02.496Z</time><hdop>3.0</hdop><vdop>2.5</vdop><extensions><gom:speed>0.97</gom:speed></extensions></trkpt>
   <trkpt lat="59.0658600882" lon="30.020481788"><ele>94.566</ele><time>2026-04-20T14:51:12.196Z</time><hdop>3.0</hdop><vdop>2.5</vdop><extensions><gom:speed>1.036</gom:speed></extensions></trkpt>
   <trkpt lat="59.0657646602" lon="30.0204737414"><ele>94.987</ele><time>2026-04-20T14:51:20.370Z</time><hdop>3.0</hdop><vdop>2.5</vdop><extensions><gom:speed>1.104</gom:speed></extensions></trkpt>
   <trkpt lat="59.065683691" lon="30.0205645174"><ele>94.062</ele><time>2026-04-20T14:51:32.429Z</time><hdop>3.0</hdop><vdop>2.5</vdop><extensions><gom:speed>0.912</gom:speed></extensions></trkpt>
   <trkpt lat="59.065598489" lon="30.0206553773"><ele>94.88</ele><time>2026-04-20T14:51:43.803Z</time><hdop>3.0</hdop><vdop>2.5</vdop><extensions><gom:speed>0.787</gom:speed></extensions></trkpt>
   <trkpt lat="59.065503983" lon="30.0207046628"><ele>93.118</ele><time>2026-04-20T14:53:42.708Z</time><hdop>3.0</hdop><vdop>2.5</vdop><extensions><gom:speed>0.956</gom:speed></extensions></trkpt>
   <trkpt lat="59.065416476" lon="30.0207852968"><ele>92.74</ele><time>2026-04-20T14:53:52.407Z</time><hdop>3.0</hdop><vdop>2.5</vdop><extensions><gom:speed>0.951</gom:speed></extensions></trkpt>
   <trkpt lat="59.0653563777" lon="30.0209281244"><ele>91.511</ele><time>2026-04-20T14:54:01.573Z</time><hdop>3.0</hdop><vdop>2.5</vdop><extensions><gom:speed>1.043</gom:speed></extensions></trkpt>
   <trkpt lat="59.0652804796" lon="30.0210381788"><ele>91.497</ele><time>2026-04-20T14:54:11.803Z</time><hdop>3.0</hdop><vdop>2.5</vdop><extensions><gom:speed>1.023</gom:speed></extensions></trkpt>
   <trkpt lat="59.0651849678" lon="30.0210411963"><ele>91.875</ele><time>2026-04-20T14:54:20.573Z</time><hdop>3.0</hdop><vdop>2.5</vdop><extensions><gom:speed>0.954</gom:speed></extensions></trkpt>
   <trkpt lat="59.0651235703" lon="30.0211902265"><ele>93.992</ele><time>2026-04-20T14:54:28.768Z</time><hdop>3.0</hdop><vdop>2.5</vdop><extensions><gom:speed>0.946</gom:speed></extensions></trkpt>
   <trkpt lat="59.0650467921" lon="30.0210922421"><ele>93.14</ele><time>2026-04-20T14:54:40.513Z</time><hdop>3.0</hdop><vdop>3.375</vdop><extensions><gom:speed>1.031</gom:speed></extensions></trkpt>
   <trkpt lat="59.0649522862" lon="30.0211017974"><ele>93.648</ele><time>2026-04-20T14:54:51.651Z</time><hdop>3.0</hdop><vdop>2.5</vdop><extensions><gom:speed>0.939</gom:speed></extensions></trkpt>
   <trkpt lat="59.06486436" lon="30.0211643264"><ele>93.185</ele><time>2026-04-20T14:55:01.767Z</time><hdop>3.0</hdop><vdop>2.5</vdop><extensions><gom:speed>0.864</gom:speed></extensions></trkpt>
   <trkpt lat="59.0647750927" lon="30.0211204891"><ele>92.44</ele><time>2026-04-20T14:55:15.802Z</time><hdop>3.0</hdop><vdop>2.5</vdop><extensions><gom:speed>0.912</gom:speed></extensions></trkpt>
   <trkpt lat="59.0647083728" lon="30.0212578685"><ele>94.466</ele><time>2026-04-20T14:55:27.752Z</time><hdop>3.0</hdop><vdop>2.5</vdop><extensions><gom:speed>0.982</gom:speed></extensions></trkpt>
   <trkpt lat="59.0646285771" lon="30.021351159"><ele>94.669</ele><time>2026-04-20T14:55:38.802Z</time><hdop>3.0</hdop><vdop>2.5</vdop><extensions><gom:speed>0.918</gom:speed></extensions></trkpt>
   <trkpt lat="59.0645385973" lon="30.0213401787"><ele>92.783</ele><time>2026-04-20T14:55:53.803Z</time><hdop>3.0</hdop><vdop>2.5</vdop><extensions><gom:speed>1.067</gom:speed></extensions></trkpt>
   <trkpt lat="59.0644505873" lon="30.0212959223"><ele>92.323</ele><time>2026-04-20T14:56:01.389Z</time><hdop>3.0</hdop><vdop>2.5</vdop><extensions><gom:speed>1.011</gom:speed></extensions></trkpt>
   <trkpt lat="59.0643603981" lon="30.0213429448"><ele>92.283</ele><time>2026-04-20T14:56:12.628Z</time><hdop>3.0</hdop><vdop>2.5</vdop><extensions><gom:speed>0.954</gom:speed></extensions></trkpt>
   <trkpt lat="59.0642700831" lon="30.0213232473"><ele>92.381</ele><time>2026-04-20T14:56:21.747Z</time><hdop>3.0</hdop><vdop>2.5</vdop><extensions><gom:speed>0.987</gom:speed></extensions></trkpt>
   <trkpt lat="59.064192299" lon="30.0214132689"><ele>91.345</ele><time>2026-04-20T14:56:32.274Z</time><hdop>3.0</hdop><vdop>2.5</vdop><extensions><gom:speed>0.974</gom:speed></extensions></trkpt>
   <trkpt lat="59.0641730625" lon="30.0215900433"><ele>90.269</ele><time>2026-04-20T14:56:41.574Z</time><hdop>3.0</hdop><vdop>2.5</vdop><extensions><gom:speed>1.064</gom:speed></extensions></trkpt>
   <trkpt lat="59.0641116651" lon="30.021724489"><ele>92.369</ele><time>2026-04-20T14:56:51.399Z</time><hdop>3.0</hdop><vdop>2.5</vdop><extensions><gom:speed>1.059</gom:speed></extensions></trkpt>
   <trkpt lat="59.0640335877" lon="30.0218202942"><ele>91.622</ele><time>2026-04-20T14:57:01.802Z</time><hdop>3.0</hdop><vdop>2.625</vdop><extensions><gom:speed>0.912</gom:speed></extensions></trkpt>
   <trkpt lat="59.0639583601" lon="30.0219173566"><ele>93.07</ele><time>2026-04-20T14:57:31.334Z</time><hdop>3.0</hdop><vdop>2.5</vdop><extensions><gom:speed>0.921</gom:speed></extensions></trkpt>
   <trkpt lat="59.063906979" lon="30.022065381"><ele>92.639</ele><time>2026-04-20T14:57:38.803Z</time><hdop>3.0</hdop><vdop>2.562</vdop><extensions><gom:speed>1.187</gom:speed></extensions></trkpt>
   <trkpt lat="59.0638646923" lon="30.0222244695"><ele>92.572</ele><time>2026-04-20T14:57:53.768Z</time><hdop>3.0</hdop><vdop>3.5</vdop><extensions><gom:speed>0.656</gom:speed></extensions></trkpt>
   <trkpt lat="59.063780077" lon="30.0221476913"><ele>96.287</ele><time>2026-04-20T14:58:06.802Z</time><hdop>3.0</hdop><vdop>2.5</vdop><extensions><gom:speed>0.855</gom:speed></extensions></trkpt>
   <trkpt lat="59.0637245888" lon="30.0220077973"><ele>97.738</ele><time>2026-04-20T14:58:24.037Z</time><hdop>3.0</hdop><vdop>2.625</vdop><extensions><gom:speed>0.862</gom:speed></extensions></trkpt>
   <trkpt lat="59.0636549771" lon="30.0221207854"><ele>95.746</ele><time>2026-04-20T14:58:33.803Z</time><hdop>3.0</hdop><vdop>2.5</vdop><extensions><gom:speed>0.845</gom:speed></extensions></trkpt>
   <trkpt lat="59.063633268" lon="30.0222928659"><ele>93.582</ele><time>2026-04-20T14:58:46.611Z</time><hdop>3.0</hdop><vdop>2.5</vdop><extensions><gom:speed>0.745</gom:speed></extensions></trkpt>
   <trkpt lat="59.0635437911" lon="30.0222720787"><ele>93.327</ele><time>2026-04-20T14:59:03.268Z</time><hdop>3.0</hdop><vdop>2.5</vdop><extensions><gom:speed>0.985</gom:speed></extensions></trkpt>
   <trkpt lat="59.0634550687" lon="30.0222311751"><ele>95.731</ele><time>2026-04-20T14:59:08.802Z</time><hdop>3.0</hdop><vdop>2.5</vdop><extensions><gom:speed>1.434</gom:speed></extensions></trkpt>
   <trkpt lat="59.0633878877" lon="30.0223476835"><ele>95.424</ele><time>2026-04-20T14:59:17.650Z</time><hdop>3.062</hdop><vdop>2.5</vdop><extensions><gom:speed>1.161</gom:speed></extensions></trkpt>
   <trkpt lat="59.0633070862" lon="30.0224347715"><ele>93.075</ele><time>2026-04-20T14:59:39.258Z</time><hdop>3.0</hdop><vdop>2.5</vdop><extensions><gom:speed>0.904</gom:speed></extensions></trkpt>
   <trkpt lat="59.0632349599" lon="30.0225456641"><ele>91.357</ele><time>2026-04-20T15:00:01.803Z</time><hdop>3.0</hdop><vdop>2.5</vdop><extensions><gom:speed>0.651</gom:speed></extensions></trkpt>
   <trkpt lat="59.0631439744" lon="30.0225503579"><ele>92.804</ele><time>2026-04-20T15:00:18.803Z</time><hdop>3.0</hdop><vdop>2.5</vdop><extensions><gom:speed>0.76</gom:speed></extensions></trkpt>
   <trkpt lat="59.0630500971" lon="30.0225183391"><ele>91.831</ele><time>2026-04-20T15:00:28.802Z</time><hdop>3.0</hdop><vdop>2.5</vdop><extensions><gom:speed>0.958</gom:speed></extensions></trkpt>
   <trkpt lat="59.0629605783" lon="30.0224939477"><ele>92.842</ele><time>2026-04-20T15:00:37.776Z</time><hdop>3.187</hdop><vdop>2.5</vdop><extensions><gom:speed>1.129</gom:speed></extensions></trkpt>
   <trkpt lat="59.062878268" lon="30.0225698878"><ele>91.88</ele><time>2026-04-20T15:00:46.802Z</time><hdop>3.125</hdop><vdop>2.5</vdop><extensions><gom:speed>1.072</gom:speed></extensions></trkpt>
   <trkpt lat="59.0627873663" lon="30.0225568958"><ele>91.542</ele><time>2026-04-20T15:00:56.803Z</time><hdop>3.0</hdop><vdop>2.5</vdop><extensions><gom:speed>0.789</gom:speed></extensions></trkpt>
   <trkpt lat="59.0627248792" lon="30.0224131462"><ele>92.268</ele><time>2026-04-20T15:01:30.166Z</time><hdop>3.0</hdop><vdop>2.5</vdop><extensions><gom:speed>0.83</gom:speed></extensions></trkpt>
   <trkpt lat="59.0627117615" lon="30.0222306721"><ele>95.999</ele><time>2026-04-20T15:01:38.972Z</time><hdop>3.625</hdop><vdop>13.625</vdop><extensions><gom:speed>1.256</gom:speed></extensions></trkpt>
   <trkpt lat="59.0627211912" lon="30.0220550713"><ele>95.999</ele><time>2026-04-20T15:01:46.029Z</time><hdop>3.0</hdop><vdop>18.437</vdop><extensions><gom:speed>1.365</gom:speed></extensions></trkpt>
   <trkpt lat="59.0627093727" lon="30.0218705856"><ele>95.999</ele><time>2026-04-20T15:01:52.649Z</time><hdop>3.0</hdop><vdop>7.625</vdop><extensions><gom:speed>1.402</gom:speed></extensions></trkpt>
   <trkpt lat="59.0626947882" lon="30.0216843397"><ele>95.999</ele><time>2026-04-20T15:02:00.711Z</time><hdop>3.125</hdop><vdop>5.312</vdop><extensions><gom:speed>1.202</gom:speed></extensions></trkpt>
   <trkpt lat="59.0626695586" lon="30.0215069786"><ele>95.999</ele><time>2026-04-20T15:02:08.571Z</time><hdop>3.312</hdop><vdop>5.187</vdop><extensions><gom:speed>1.142</gom:speed></extensions></trkpt>
   <trkpt lat="59.0626775634" lon="30.021319224"><ele>95.399</ele><time>2026-04-20T15:02:18.332Z</time><hdop>3.0</hdop><vdop>9.25</vdop><extensions><gom:speed>1.079</gom:speed></extensions></trkpt>
   <trkpt lat="59.0626432814" lon="30.0211384263"><ele>95.999</ele><time>2026-04-20T15:02:25.705Z</time><hdop>3.0</hdop><vdop>4.312</vdop><extensions><gom:speed>1.275</gom:speed></extensions></trkpt>
   <trkpt lat="59.0626374979" lon="30.0209457264"><ele>95.399</ele><time>2026-04-20T15:02:33.826Z</time><hdop>4.375</hdop><vdop>7.625</vdop><extensions><gom:speed>1.301</gom:speed></extensions></trkpt>
   <trkpt lat="59.0625996955" lon="30.0207773339"><ele>95.399</ele><time>2026-04-20T15:02:40.932Z</time><hdop>3.687</hdop><vdop>6.312</vdop><extensions><gom:speed>1.307</gom:speed></extensions></trkpt>
   <trkpt lat="59.0625727896" lon="30.0205937703"><ele>95.399</ele><time>2026-04-20T15:02:50.069Z</time><hdop>3.812</hdop><vdop>5.562</vdop><extensions><gom:speed>1.167</gom:speed></extensions></trkpt>
   <trkpt lat="59.0625353644" lon="30.0204281439"><ele>95.399</ele><time>2026-04-20T15:02:58.205Z</time><hdop>3.812</hdop><vdop>6.25</vdop><extensions><gom:speed>1.18</gom:speed></extensions></trkpt>
   <trkpt lat="59.062513781" lon="30.0202460889"><ele>95.399</ele><time>2026-04-20T15:03:06.288Z</time><hdop>3.062</hdop><vdop>7.125</vdop><extensions><gom:speed>1.143</gom:speed></extensions></trkpt>
   <trkpt lat="59.0624967657" lon="30.0200685602"><ele>95.399</ele><time>2026-04-20T15:03:14.568Z</time><hdop>3.0</hdop><vdop>10.437</vdop><extensions><gom:speed>1.153</gom:speed></extensions></trkpt>
   <trkpt lat="59.0624827679" lon="30.019888936"><ele>95.399</ele><time>2026-04-20T15:03:22.803Z</time><hdop>3.0</hdop><vdop>13.562</vdop><extensions><gom:speed>1.133</gom:speed></extensions></trkpt>
   <trkpt lat="59.0624612684" lon="30.0197096471"><ele>95.399</ele><time>2026-04-20T15:03:31.388Z</time><hdop>3.0</hdop><vdop>11.375</vdop><extensions><gom:speed>1.115</gom:speed></extensions></trkpt>
   <trkpt lat="59.0624325603" lon="30.0195308611"><ele>95.399</ele><time>2026-04-20T15:03:39.755Z</time><hdop>3.0</hdop><vdop>11.312</vdop><extensions><gom:speed>1.12</gom:speed></extensions></trkpt>
   <trkpt lat="59.0624244718" lon="30.019350734"><ele>95.399</ele><time>2026-04-20T15:03:47.409Z</time><hdop>3.0</hdop><vdop>16.625</vdop><extensions><gom:speed>1.099</gom:speed></extensions></trkpt>
   <trkpt lat="59.0623998709" lon="30.0191802461"><ele>94.545</ele><time>2026-04-20T15:03:55.270Z</time><hdop>3.0</hdop><vdop>2.5</vdop><extensions><gom:speed>1.1</gom:speed></extensions></trkpt>
   <trkpt lat="59.0623916986" lon="30.019000119"><ele>95.481</ele><time>2026-04-20T15:04:03.609Z</time><hdop>3.0</hdop><vdop>2.5</vdop><extensions><gom:speed>1.128</gom:speed></extensions></trkpt>
   <trkpt lat="59.0623770721" lon="30.0188187346"><ele>95.82</ele><time>2026-04-20T15:04:12.232Z</time><hdop>3.0</hdop><vdop>2.5</vdop><extensions><gom:speed>1.092</gom:speed></extensions></trkpt>
   <trkpt lat="59.0623566622" lon="30.0186299742"><ele>96.467</ele><time>2026-04-20T15:04:20.731Z</time><hdop>3.0</hdop><vdop>2.5</vdop><extensions><gom:speed>1.148</gom:speed></extensions></trkpt>
   <trkpt lat="59.0623394793" lon="30.0184482545"><ele>96.27</ele><time>2026-04-20T15:04:29.574Z</time><hdop>3.0</hdop><vdop>2.5</vdop><extensions><gom:speed>1.167</gom:speed></extensions></trkpt>
   <trkpt lat="59.0623645831" lon="30.0182738271"><ele>96.035</ele><time>2026-04-20T15:04:50.095Z</time><hdop>3.0</hdop><vdop>2.5</vdop><extensions><gom:speed>1.021</gom:speed></extensions></trkpt>
   <trkpt lat="59.0624330632" lon="30.0181574863"><ele>96.962</ele><time>2026-04-20T15:04:58.547Z</time><hdop>3.875</hdop><vdop>2.5</vdop><extensions><gom:speed>1.204</gom:speed></extensions></trkpt>
   <trkpt lat="59.0623705762" lon="30.0180197716"><ele>97.917</ele><time>2026-04-20T15:05:00.802Z</time><hdop>5.0</hdop><vdop>2.5</vdop><extensions><gom:speed>1.122</gom:speed></extensions></trkpt>
   <trkpt lat="59.0623080891" lon="30.0178837333"><ele>98.058</ele><time>2026-04-20T15:05:03.802Z</time><hdop>4.937</hdop><vdop>2.5</vdop><extensions><gom:speed>1.256</gom:speed></extensions></trkpt>
   <trkpt lat="59.0622908643" lon="30.0177050312"><ele>98.686</ele><time>2026-04-20T15:05:11.294Z</time><hdop>3.062</hdop><vdop>2.5</vdop><extensions><gom:speed>1.214</gom:speed></extensions></trkpt>
   <trkpt lat="59.062271083" lon="30.0175340403"><ele>97.602</ele><time>2026-04-20T15:05:19.802Z</time><hdop>3.187</hdop><vdop>2.5</vdop><extensions><gom:speed>1.126</gom:speed></extensions></trkpt>
   <trkpt lat="59.0622555765" lon="30.0173542485"><ele>97.307</ele><time>2026-04-20T15:05:32.802Z</time><hdop>3.062</hdop><vdop>2.5</vdop><extensions><gom:speed>1.126</gom:speed></extensions></trkpt>
   <trkpt lat="59.0622588873" lon="30.0171786476"><ele>96.339</ele><time>2026-04-20T15:05:38.803Z</time><hdop>3.062</hdop><vdop>2.625</vdop><extensions><gom:speed>1.375</gom:speed></extensions></trkpt>
   <trkpt lat="59.0622566661" lon="30.0169943296"><ele>97.337</ele><time>2026-04-20T15:05:45.731Z</time><hdop>3.0</hdop><vdop>2.937</vdop><extensions><gom:speed>1.46</gom:speed></extensions></trkpt>
   <trkpt lat="59.0622420816" lon="30.0168094248"><ele>98.161</ele><time>2026-04-20T15:05:54.374Z</time><hdop>3.0</hdop><vdop>3.125</vdop><extensions><gom:speed>1.289</gom:speed></extensions></trkpt>
   <trkpt lat="59.0622296764" lon="30.0166322314"><ele>96.468</ele><time>2026-04-20T15:06:04.802Z</time><hdop>3.25</hdop><vdop>2.5</vdop><extensions><gom:speed>1.211</gom:speed></extensions></trkpt>
   <trkpt lat="59.062189066" lon="30.0164712988"><ele>100.699</ele><time>2026-04-20T15:06:12.395Z</time><hdop>3.0</hdop><vdop>11.312</vdop><extensions><gom:speed>1.151</gom:speed></extensions></trkpt>
   <trkpt lat="59.0621623697" lon="30.0163035769"><ele>100.699</ele><time>2026-04-20T15:06:20.075Z</time><hdop>3.0</hdop><vdop>10.437</vdop><extensions><gom:speed>1.168</gom:speed></extensions></trkpt>
   <trkpt lat="59.062148791" lon="30.0161193427"><ele>100.699</ele><time>2026-04-20T15:06:27.452Z</time><hdop>3.0</hdop><vdop>8.812</vdop><extensions><gom:speed>1.169</gom:speed></extensions></trkpt>
   <trkpt lat="59.0621692848" lon="30.0159461726"><ele>100.699</ele><time>2026-04-20T15:06:34.374Z</time><hdop>3.062</hdop><vdop>13.562</vdop><extensions><gom:speed>1.317</gom:speed></extensions></trkpt>
   <trkpt lat="59.0621444743" lon="30.0157666322"><ele>100.699</ele><time>2026-04-20T15:06:41.607Z</time><hdop>3.125</hdop><vdop>12.375</vdop><extensions><gom:speed>1.353</gom:speed></extensions></trkpt>
   <trkpt lat="59.0621308956" lon="30.0155826495"><ele>100.699</ele><time>2026-04-20T15:06:49.015Z</time><hdop>3.25</hdop><vdop>16.562</vdop><extensions><gom:speed>1.481</gom:speed></extensions></trkpt>
   <trkpt lat="59.0621178618" lon="30.0154058751"><ele>100.699</ele><time>2026-04-20T15:06:55.810Z</time><hdop>3.75</hdop><vdop>23.375</vdop><extensions><gom:speed>1.446</gom:speed></extensions></trkpt>
   <trkpt lat="59.0621004693" lon="30.0152228982"><ele>100.699</ele><time>2026-04-20T15:07:04.473Z</time><hdop>3.562</hdop><vdop>26.625</vdop><extensions><gom:speed>1.283</gom:speed></extensions></trkpt>
   <trkpt lat="59.0620903691" lon="30.0150489737"><ele>100.699</ele><time>2026-04-20T15:07:12.135Z</time><hdop>3.812</hdop><vdop>30.625</vdop><extensions><gom:speed>1.365</gom:speed></extensions></trkpt>
   <trkpt lat="59.0620683666" lon="30.0148761388"><ele>100.699</ele><time>2026-04-20T15:07:20.607Z</time><hdop>3.437</hdop><vdop>30.687</vdop><extensions><gom:speed>1.449</gom:speed></extensions></trkpt>
   <trkpt lat="59.0620427599" lon="30.01470146"><ele>100.699</ele><time>2026-04-20T15:07:28.508Z</time><hdop>3.562</hdop><vdop>30.625</vdop><extensions><gom:speed>1.505</gom:speed></extensions></trkpt>
   <trkpt lat="59.0620115792" lon="30.0145328999"><ele>100.699</ele><time>2026-04-20T15:07:35.802Z</time><hdop>3.687</hdop><vdop>30.687</vdop><extensions><gom:speed>1.462</gom:speed></extensions></trkpt>
   <trkpt lat="59.0620139681" lon="30.0143525213"><ele>97.099</ele><time>2026-04-20T15:07:42.930Z</time><hdop>3.5</hdop><vdop>23.437</vdop><extensions><gom:speed>1.454</gom:speed></extensions></trkpt>
   <trkpt lat="59.0620097771" lon="30.0141616654"><ele>93.679</ele><time>2026-04-20T15:07:50.669Z</time><hdop>3.437</hdop><vdop>3.562</vdop><extensions><gom:speed>1.492</gom:speed></extensions></trkpt>
   <trkpt lat="59.0620003894" lon="30.0139842205"><ele>94.298</ele><time>2026-04-20T15:07:58.494Z</time><hdop>3.375</hdop><vdop>3.812</vdop><extensions><gom:speed>1.494</gom:speed></extensions></trkpt>
   <trkpt lat="59.0619780935" lon="30.0138049316"><ele>96.999</ele><time>2026-04-20T15:08:05.691Z</time><hdop>3.062</hdop><vdop>14.25</vdop><extensions><gom:speed>1.512</gom:speed></extensions></trkpt>
   <trkpt lat="59.0619553786" lon="30.0136280735"><ele>96.999</ele><time>2026-04-20T15:08:12.716Z</time><hdop>3.0</hdop><vdop>13.312</vdop><extensions><gom:speed>1.455</gom:speed></extensions></trkpt>
   <trkpt lat="59.0619504752" lon="30.0134489522"><ele>96.999</ele><time>2026-04-20T15:08:19.802Z</time><hdop>3.062</hdop><vdop>7.625</vdop><extensions><gom:speed>1.471</gom:speed></extensions></trkpt>
   <trkpt lat="59.0619391596" lon="30.01327025"><ele>92.43</ele><time>2026-04-20T15:08:27.526Z</time><hdop>3.125</hdop><vdop>2.5</vdop><extensions><gom:speed>1.504</gom:speed></extensions></trkpt>
   <trkpt lat="59.0619217672" lon="30.0130889494"><ele>96.999</ele><time>2026-04-20T15:08:34.715Z</time><hdop>3.0</hdop><vdop>15.187</vdop><extensions><gom:speed>1.552</gom:speed></extensions></trkpt>
   <trkpt lat="59.0619040813" lon="30.0129161984"><ele>94.779</ele><time>2026-04-20T15:08:43.803Z</time><hdop>3.062</hdop><vdop>2.5</vdop><extensions><gom:speed>1.164</gom:speed></extensions></trkpt>
   <trkpt lat="59.061869967" lon="30.0127396755"><ele>95.105</ele><time>2026-04-20T15:08:51.687Z</time><hdop>3.0</hdop><vdop>2.5</vdop><extensions><gom:speed>1.267</gom:speed></extensions></trkpt>
   <trkpt lat="59.0618420972" lon="30.0125631527"><ele>96.243</ele><time>2026-04-20T15:08:58.871Z</time><hdop>3.0</hdop><vdop>2.5</vdop><extensions><gom:speed>1.24</gom:speed></extensions></trkpt>
   <trkpt lat="59.0618284766" lon="30.0123873841"><ele>96.999</ele><time>2026-04-20T15:09:06.270Z</time><hdop>3.0</hdop><vdop>12.5</vdop><extensions><gom:speed>1.25</gom:speed></extensions></trkpt>
   <trkpt lat="59.0618067674" lon="30.0122121186"><ele>96.542</ele><time>2026-04-20T15:09:13.431Z</time><hdop>3.0</hdop><vdop>2.5</vdop><extensions><gom:speed>1.244</gom:speed></extensions></trkpt>
   <trkpt lat="59.0617941946" lon="30.0120390323"><ele>96.602</ele><time>2026-04-20T15:09:20.694Z</time><hdop>3.0</hdop><vdop>2.5</vdop><extensions><gom:speed>1.266</gom:speed></extensions></trkpt>
   <trkpt lat="59.0617727788" lon="30.0118618388"><ele>97.117</ele><time>2026-04-20T15:09:27.776Z</time><hdop>3.0</hdop><vdop>2.5</vdop><extensions><gom:speed>1.29</gom:speed></extensions></trkpt>
   <trkpt lat="59.0617508602" lon="30.0116843939"><ele>97.204</ele><time>2026-04-20T15:09:35.050Z</time><hdop>3.0</hdop><vdop>2.5</vdop><extensions><gom:speed>1.291</gom:speed></extensions></trkpt>
   <trkpt lat="59.0617356889" lon="30.0115089607"><ele>97.31</ele><time>2026-04-20T15:09:42.475Z</time><hdop>3.0</hdop><vdop>2.5</vdop><extensions><gom:speed>1.276</gom:speed></extensions></trkpt>
   <trkpt lat="59.061731959" lon="30.011329588"><ele>97.648</ele><time>2026-04-20T15:09:50.345Z</time><hdop>3.0</hdop><vdop>2.5</vdop><extensions><gom:speed>1.278</gom:speed></extensions></trkpt>
   <trkpt lat="59.0617147761" lon="30.011149377"><ele>97.754</ele><time>2026-04-20T15:09:57.553Z</time><hdop>3.0</hdop><vdop>2.5</vdop><extensions><gom:speed>1.333</gom:speed></extensions></trkpt>
   <trkpt lat="59.0616796978" lon="30.0109760393"><ele>97.764</ele><time>2026-04-20T15:10:05.311Z</time><hdop>3.0</hdop><vdop>2.5</vdop><extensions><gom:speed>1.247</gom:speed></extensions></trkpt>
   <trkpt lat="59.0616771832" lon="30.0107877817"><ele>97.754</ele><time>2026-04-20T15:10:12.802Z</time><hdop>3.0</hdop><vdop>2.5</vdop><extensions><gom:speed>1.314</gom:speed></extensions></trkpt>
   <trkpt lat="59.0616534624" lon="30.0106173777"><ele>95.634</ele><time>2026-04-20T15:10:20.095Z</time><hdop>3.125</hdop><vdop>2.625</vdop><extensions><gom:speed>1.376</gom:speed></extensions></trkpt>
   <trkpt lat="59.0616652809" lon="30.0104348198"><ele>95.058</ele><time>2026-04-20T15:10:26.615Z</time><hdop>3.125</hdop><vdop>3.062</vdop><extensions><gom:speed>1.491</gom:speed></extensions></trkpt>
   <trkpt lat="59.0616577791" lon="30.0102476519"><ele>94.423</ele><time>2026-04-20T15:10:33.709Z</time><hdop>3.125</hdop><vdop>2.937</vdop><extensions><gom:speed>1.425</gom:speed></extensions></trkpt>
   <trkpt lat="59.0616379978" lon="30.0100719672"><ele>93.518</ele><time>2026-04-20T15:10:40.803Z</time><hdop>3.0</hdop><vdop>4.062</vdop><extensions><gom:speed>1.413</gom:speed></extensions></trkpt>
   <trkpt lat="59.0616196834" lon="30.0098960311"><ele>94.281</ele><time>2026-04-20T15:10:48.034Z</time><hdop>3.0</hdop><vdop>3.562</vdop><extensions><gom:speed>1.369</gom:speed></extensions></trkpt>
   <trkpt lat="59.0615953758" lon="30.0097219389"><ele>94.283</ele><time>2026-04-20T15:10:55.268Z</time><hdop>3.0</hdop><vdop>5.25</vdop><extensions><gom:speed>1.372</gom:speed></extensions></trkpt>
   <trkpt lat="59.0615814619" lon="30.0095385429"><ele>94.649</ele><time>2026-04-20T15:11:02.425Z</time><hdop>3.125</hdop><vdop>3.625</vdop><extensions><gom:speed>1.373</gom:speed></extensions></trkpt>
   <trkpt lat="59.0615687633" lon="30.0093546439"><ele>94.841</ele><time>2026-04-20T15:11:10.253Z</time><hdop>3.062</hdop><vdop>2.5</vdop><extensions><gom:speed>1.33</gom:speed></extensions></trkpt>
   <trkpt lat="59.0615467608" lon="30.0091718346"><ele>95.629</ele><time>2026-04-20T15:11:17.574Z</time><hdop>3.0</hdop><vdop>3.0</vdop><extensions><gom:speed>1.387</gom:speed></extensions></trkpt>
   <trkpt lat="59.0615238782" lon="30.0089959823"><ele>95.122</ele><time>2026-04-20T15:11:24.731Z</time><hdop>3.0</hdop><vdop>2.562</vdop><extensions><gom:speed>1.378</gom:speed></extensions></trkpt>
   <trkpt lat="59.0615140714" lon="30.0088053778"><ele>94.671</ele><time>2026-04-20T15:11:32.490Z</time><hdop>3.0</hdop><vdop>4.812</vdop><extensions><gom:speed>1.388</gom:speed></extensions></trkpt>
   <trkpt lat="59.0615050608" lon="30.008629777"><ele>94.929</ele><time>2026-04-20T15:11:39.009Z</time><hdop>3.687</hdop><vdop>7.937</vdop><extensions><gom:speed>1.406</gom:speed></extensions></trkpt>
   <trkpt lat="59.061489261" lon="30.0084502366"><ele>95.618</ele><time>2026-04-20T15:11:46.235Z</time><hdop>3.187</hdop><vdop>4.25</vdop><extensions><gom:speed>1.41</gom:speed></extensions></trkpt>
   <trkpt lat="59.0614759756" lon="30.0082632363"><ele>95.54</ele><time>2026-04-20T15:11:53.374Z</time><hdop>3.312</hdop><vdop>4.812</vdop><extensions><gom:speed>1.401</gom:speed></extensions></trkpt>
   <trkpt lat="59.0614622712" lon="30.0080849532"><ele>96.575</ele><time>2026-04-20T15:12:00.676Z</time><hdop>3.0</hdop><vdop>4.0</vdop><extensions><gom:speed>1.387</gom:speed></extensions></trkpt>
   <trkpt lat="59.0614434958" lon="30.0079031498"><ele>96.601</ele><time>2026-04-20T15:12:08.035Z</time><hdop>3.125</hdop><vdop>4.687</vdop><extensions><gom:speed>1.392</gom:speed></extensions></trkpt>
   <trkpt lat="59.0614273606" lon="30.0077250343"><ele>96.181</ele><time>2026-04-20T15:12:17.286Z</time><hdop>3.062</hdop><vdop>4.562</vdop><extensions><gom:speed>1.098</gom:speed></extensions></trkpt>
   <trkpt lat="59.0614213675" lon="30.0075504393"><ele>95.883</ele><time>2026-04-20T15:12:25.788Z</time><hdop>3.437</hdop><vdop>5.875</vdop><extensions><gom:speed>1.237</gom:speed></extensions></trkpt>
   <trkpt lat="59.0614048971" lon="30.0073618465"><ele>96.05</ele><time>2026-04-20T15:12:34.669Z</time><hdop>3.062</hdop><vdop>4.062</vdop><extensions><gom:speed>1.274</gom:speed></extensions></trkpt>
   <trkpt lat="59.0613837747" lon="30.0071824737"><ele>94.715</ele><time>2026-04-20T15:12:44.429Z</time><hdop>3.437</hdop><vdop>5.687</vdop><extensions><gom:speed>1.127</gom:speed></extensions></trkpt>
   <trkpt lat="59.0613423681" lon="30.0070184399"><ele>95.609</ele><time>2026-04-20T15:13:04.153Z</time><hdop>3.0</hdop><vdop>2.625</vdop><extensions><gom:speed>0.79</gom:speed></extensions></trkpt>
   <trkpt lat="59.0613286637" lon="30.006845186"><ele>96.939</ele><time>2026-04-20T15:13:16.633Z</time><hdop>3.0</hdop><vdop>2.5</vdop><extensions><gom:speed>0.226</gom:speed></extensions></trkpt>
   <trkpt lat="59.0612888916" lon="30.0066685793"><ele>96.38</ele><time>2026-04-20T15:13:25.210Z</time><hdop>3.0</hdop><vdop>2.5</vdop><extensions><gom:speed>1.001</gom:speed></extensions></trkpt>
   <trkpt lat="59.0612411985" lon="30.0065029528"><ele>96.209</ele><time>2026-04-20T15:13:37.803Z</time><hdop>3.0</hdop><vdop>3.062</vdop><extensions><gom:speed>0.991</gom:speed></extensions></trkpt>
   <trkpt lat="59.0613064936" lon="30.0066238199"><ele>101.491</ele><time>2026-04-20T15:19:36.803Z</time><hdop>3.0</hdop><vdop>2.5</vdop><extensions><gom:speed>0.133</gom:speed></extensions></trkpt>
  </trkseg>
 </trk>
</gpx>